UAE33T OMDB-EGPF
Flight info
| Callsign | UAE33T |
|---|---|
| Flight time | 8h 35m |
| Altitude | 36000 |
| Route | ANVIX R401 GIDIS G783 VAVIM DCT PEKEM/N0494F380 DCT MEDPO DCT ITRUX Y511 PMA Z712 WEJ L677 KUPTI/N0483F400 L677 CVO DCT OTHON UN128 RDS UL609 MES UG18 FSK UN128 RUGAS DCT RAMAP DCT VIBOP DCT NIDLO DCT SUBEN DCT ANELA L604 RELBI L602 RKN L980 TENLI L602 EMLON M79 TENDO DCT AGPED |
| Aircraft | A359/H-SDE2E3GHIJ1J3J4J5LM1ORWXY/LB1D1 |
Departure
| Time | 2026-04-23 11:51 |
|---|---|
| Airport | Dubai International Airport (OMDB) |
Arrival
| Time | 2026-04-23 20:26 |
|---|---|
| Airport | Glasgow Airport (EGPF) |
| Time | Latitude | Longitude | Altitude | Speed | Heading |
|---|---|---|---|---|---|
| 2026-04-23 11:18 | 25.24108 | 55.37401 | 27 ft | 0 kts | 31° |
| 2026-04-23 11:41 | 25.24099 | 55.37395 | 28 ft | 4 kts | 31° |
| 2026-04-23 11:41 | 25.24076 | 55.37380 | 28 ft | 4 kts | 31° |
| 2026-04-23 11:42 | 25.24057 | 55.37367 | 25 ft | 4 kts | 38° |
| 2026-04-23 11:42 | 25.24042 | 55.37345 | 26 ft | 4 kts | 82° |
| 2026-04-23 11:42 | 25.24045 | 55.37317 | 24 ft | 4 kts | 115° |
| 2026-04-23 11:42 | 25.24057 | 55.37293 | 25 ft | 4 kts | 122° |
| 2026-04-23 11:43 | 25.24069 | 55.37272 | 24 ft | 0 kts | 122° |
| 2026-04-23 11:45 | 25.24062 | 55.37285 | 25 ft | 5 kts | 122° |
| 2026-04-23 11:45 | 25.24035 | 55.37333 | 25 ft | 8 kts | 122° |
| 2026-04-23 11:45 | 25.24004 | 55.37389 | 27 ft | 9 kts | 121° |
| 2026-04-23 11:46 | 25.23972 | 55.37453 | 27 ft | 10 kts | 110° |
| 2026-04-23 11:46 | 25.23971 | 55.37532 | 27 ft | 11 kts | 77° |
| 2026-04-23 11:46 | 25.24012 | 55.37603 | 27 ft | 11 kts | 39° |
| 2026-04-23 11:46 | 25.24080 | 55.37650 | 27 ft | 12 kts | 31° |
| 2026-04-23 11:47 | 25.24153 | 55.37699 | 27 ft | 13 kts | 31° |
| 2026-04-23 11:47 | 25.24225 | 55.37748 | 27 ft | 11 kts | 32° |
| 2026-04-23 11:47 | 25.24280 | 55.37785 | 27 ft | 9 kts | 32° |
| 2026-04-23 11:47 | 25.24337 | 55.37826 | 28 ft | 10 kts | 33° |
| 2026-04-23 11:48 | 25.24396 | 55.37870 | 29 ft | 12 kts | 34° |
| 2026-04-23 11:48 | 25.24468 | 55.37923 | 31 ft | 12 kts | 33° |
| 2026-04-23 11:48 | 25.24539 | 55.37979 | 30 ft | 13 kts | 35° |
| 2026-04-23 11:48 | 25.24603 | 55.38025 | 28 ft | 6 kts | 32° |
| 2026-04-23 11:49 | 25.24629 | 55.38044 | 29 ft | 1 kts | 32° |
| 2026-04-23 11:49 | 25.24630 | 55.38044 | 29 ft | 0 kts | 32° |
| 2026-04-23 11:49 | 25.24670 | 55.38072 | 30 ft | 10 kts | 31° |
| 2026-04-23 11:50 | 25.24727 | 55.38111 | 32 ft | 9 kts | 31° |
| 2026-04-23 11:50 | 25.24768 | 55.38095 | 32 ft | 6 kts | 300° |
| 2026-04-23 11:50 | 25.24802 | 55.38030 | 31 ft | 24 kts | 301° |
| 2026-04-23 11:50 | 25.25005 | 55.37667 | 32 ft | 85 kts | 301° |
| 2026-04-23 11:51 | 25.25413 | 55.36930 | 31 ft | 137 kts | 301° |
| 2026-04-23 11:51 | 25.25986 | 55.35893 | 149 ft | 170 kts | 304° |
| 2026-04-23 11:51 | 25.26583 | 55.34829 | 790 ft | 160 kts | 311° |
| 2026-04-23 11:51 | 25.27253 | 55.33786 | 1193 ft | 173 kts | 305° |
| 2026-04-23 11:52 | 25.27908 | 55.32590 | 1363 ft | 192 kts | 303° |
| 2026-04-23 11:52 | 25.28589 | 55.31302 | 1739 ft | 202 kts | 302° |
| 2026-04-23 11:52 | 25.29178 | 55.29807 | 1983 ft | 224 kts | 284° |
| 2026-04-23 11:52 | 25.29011 | 55.28053 | 2415 ft | 238 kts | 251° |
| 2026-04-23 11:53 | 25.28329 | 55.26364 | 2916 ft | 247 kts | 245° |
| 2026-04-23 11:53 | 25.27544 | 55.24588 | 3163 ft | 266 kts | 245° |
| 2026-04-23 11:53 | 25.26725 | 55.22718 | 3657 ft | 271 kts | 246° |
| 2026-04-23 11:53 | 25.25924 | 55.20866 | 4506 ft | 263 kts | 244° |
| 2026-04-23 11:54 | 25.25141 | 55.19056 | 5220 ft | 261 kts | 242° |
| 2026-04-23 11:54 | 25.24051 | 55.17463 | 5731 ft | 264 kts | 218° |
| 2026-04-23 11:54 | 25.22360 | 55.16717 | 6247 ft | 267 kts | 185° |
| 2026-04-23 11:54 | 25.21127 | 55.16717 | 6665 ft | 269 kts | 178° |
| 2026-04-23 11:55 | 25.18739 | 55.17521 | 7353 ft | 279 kts | 147° |
| 2026-04-23 11:55 | 25.17441 | 55.19138 | 7944 ft | 287 kts | 123° |
| 2026-04-23 11:55 | 25.16491 | 55.21088 | 8567 ft | 291 kts | 120° |
| 2026-04-23 11:55 | 25.15868 | 55.22440 | 8997 ft | 292 kts | 120° |
| 2026-04-23 11:56 | 25.14947 | 55.24418 | 9635 ft | 295 kts | 121° |
| 2026-04-23 11:56 | 25.13993 | 55.26437 | 10211 ft | 298 kts | 121° |
| 2026-04-23 11:56 | 25.13026 | 55.28475 | 10770 ft | 302 kts | 121° |
| 2026-04-23 11:56 | 25.12040 | 55.30536 | 11369 ft | 305 kts | 122° |
| 2026-04-23 11:57 | 25.11039 | 55.32618 | 11980 ft | 309 kts | 122° |
| 2026-04-23 11:57 | 25.10050 | 55.34736 | 12594 ft | 313 kts | 119° |
| 2026-04-23 11:57 | 25.09148 | 55.36944 | 13172 ft | 317 kts | 117° |
| 2026-04-23 11:57 | 25.08245 | 55.39199 | 13645 ft | 326 kts | 118° |
| 2026-04-23 11:58 | 25.07301 | 55.41529 | 13983 ft | 337 kts | 118° |
| 2026-04-23 11:58 | 25.06345 | 55.43939 | 14318 ft | 348 kts | 116° |
| 2026-04-23 11:58 | 25.05396 | 55.46442 | 14656 ft | 358 kts | 116° |
| 2026-04-23 11:58 | 25.04421 | 55.49010 | 15004 ft | 368 kts | 116° |
| 2026-04-23 11:59 | 25.03416 | 55.51640 | 15357 ft | 376 kts | 116° |
| 2026-04-23 11:59 | 25.02393 | 55.54291 | 15704 ft | 384 kts | 116° |
| 2026-04-23 11:59 | 25.01155 | 55.56930 | 16057 ft | 389 kts | 123° |
| 2026-04-23 11:59 | 24.99767 | 55.59526 | 16414 ft | 396 kts | 124° |
| 2026-04-23 12:00 | 24.98339 | 55.62157 | 16760 ft | 404 kts | 124° |
| 2026-04-23 12:00 | 24.96881 | 55.64844 | 17063 ft | 412 kts | 124° |
| 2026-04-23 12:00 | 24.95399 | 55.67579 | 17368 ft | 419 kts | 123° |
| 2026-04-23 12:00 | 24.93834 | 55.70328 | 17668 ft | 425 kts | 127° |
| 2026-04-23 12:01 | 24.92105 | 55.73000 | 17902 ft | 433 kts | 129° |
| 2026-04-23 12:01 | 24.90318 | 55.75691 | 18272 ft | 435 kts | 129° |
| 2026-04-23 12:01 | 24.88545 | 55.78356 | 18701 ft | 438 kts | 129° |
| 2026-04-23 12:01 | 24.86738 | 55.81076 | 19010 ft | 443 kts | 129° |
| 2026-04-23 12:02 | 24.84914 | 55.83822 | 19407 ft | 444 kts | 129° |
| 2026-04-23 12:02 | 24.83083 | 55.86578 | 19835 ft | 446 kts | 129° |
| 2026-04-23 12:02 | 24.81163 | 55.89277 | 20187 ft | 447 kts | 135° |
| 2026-04-23 12:02 | 24.78836 | 55.91515 | 20525 ft | 443 kts | 150° |
| 2026-04-23 12:03 | 24.76088 | 55.92992 | 20914 ft | 438 kts | 166° |
| 2026-04-23 12:03 | 24.73112 | 55.93636 | 21274 ft | 434 kts | 179° |
| 2026-04-23 12:03 | 24.70125 | 55.93778 | 21653 ft | 435 kts | 183° |
| 2026-04-23 12:03 | 24.67083 | 55.93736 | 21928 ft | 438 kts | 185° |
| 2026-04-23 12:04 | 24.64050 | 55.93472 | 22358 ft | 437 kts | 192° |
| 2026-04-23 12:04 | 24.61110 | 55.92692 | 22729 ft | 435 kts | 202° |
| 2026-04-23 12:04 | 24.58356 | 55.91323 | 23058 ft | 434 kts | 213° |
| 2026-04-23 12:04 | 24.55892 | 55.89427 | 23427 ft | 433 kts | 221° |
| 2026-04-23 12:05 | 24.53560 | 55.87327 | 23719 ft | 435 kts | 223° |
| 2026-04-23 12:05 | 24.51275 | 55.85129 | 24053 ft | 437 kts | 224° |
| 2026-04-23 12:05 | 24.49006 | 55.82891 | 24387 ft | 439 kts | 225° |
| 2026-04-23 12:05 | 24.46732 | 55.80643 | 24749 ft | 441 kts | 225° |
| 2026-04-23 12:06 | 24.44437 | 55.78389 | 25094 ft | 444 kts | 225° |
| 2026-04-23 12:06 | 24.42117 | 55.76131 | 25476 ft | 446 kts | 225° |
| 2026-04-23 12:06 | 24.37434 | 55.71617 | 26217 ft | 451 kts | 225° |
| 2026-04-23 12:07 | 24.35091 | 55.69365 | 26575 ft | 454 kts | 225° |
| 2026-04-23 12:07 | 24.32706 | 55.67078 | 26958 ft | 456 kts | 225° |
| 2026-04-23 12:07 | 24.30312 | 55.64786 | 27327 ft | 458 kts | 225° |
| 2026-04-23 12:07 | 24.27900 | 55.62478 | 27676 ft | 461 kts | 225° |
| 2026-04-23 12:08 | 24.25473 | 55.60155 | 28014 ft | 464 kts | 225° |
| 2026-04-23 12:08 | 24.23099 | 55.57754 | 28359 ft | 464 kts | 228° |
| 2026-04-23 12:08 | 24.20853 | 55.55277 | 28713 ft | 465 kts | 230° |
| 2026-04-23 12:08 | 24.18601 | 55.52705 | 29030 ft | 467 kts | 230° |
| 2026-04-23 12:09 | 24.16351 | 55.50125 | 29408 ft | 468 kts | 231° |
| 2026-04-23 12:09 | 24.14083 | 55.47546 | 29751 ft | 469 kts | 230° |
| 2026-04-23 12:09 | 24.11800 | 55.44979 | 29997 ft | 472 kts | 230° |
| 2026-04-23 12:09 | 24.09486 | 55.42403 | 30223 ft | 475 kts | 230° |
| 2026-04-23 12:10 | 24.07157 | 55.39828 | 30529 ft | 475 kts | 230° |
| 2026-04-23 12:10 | 24.04857 | 55.37295 | 30870 ft | 474 kts | 230° |
| 2026-04-23 12:10 | 24.02533 | 55.34739 | 31208 ft | 474 kts | 230° |
| 2026-04-23 12:10 | 24.00199 | 55.32175 | 31534 ft | 474 kts | 230° |
| 2026-04-23 12:11 | 23.97873 | 55.29618 | 31850 ft | 473 kts | 230° |
| 2026-04-23 12:11 | 23.95553 | 55.27067 | 32148 ft | 473 kts | 230° |
| 2026-04-23 12:11 | 23.93229 | 55.24513 | 32501 ft | 472 kts | 230° |
| 2026-04-23 12:11 | 23.90913 | 55.21970 | 32849 ft | 471 kts | 230° |
| 2026-04-23 12:12 | 23.88604 | 55.19433 | 33136 ft | 471 kts | 230° |
| 2026-04-23 12:12 | 23.86284 | 55.16886 | 33419 ft | 471 kts | 230° |
| 2026-04-23 12:12 | 23.83998 | 55.14378 | 33703 ft | 471 kts | 230° |
| 2026-04-23 12:12 | 23.81685 | 55.11841 | 33967 ft | 470 kts | 230° |
| 2026-04-23 12:13 | 23.79378 | 55.09313 | 34257 ft | 468 kts | 231° |
| 2026-04-23 12:13 | 23.77086 | 55.06804 | 34559 ft | 466 kts | 231° |
| 2026-04-23 12:13 | 23.74790 | 55.04292 | 34832 ft | 465 kts | 231° |
| 2026-04-23 12:13 | 23.72512 | 55.01799 | 35092 ft | 464 kts | 231° |
| 2026-04-23 12:14 | 23.70234 | 54.99307 | 35347 ft | 462 kts | 231° |
| 2026-04-23 12:14 | 23.67992 | 54.96856 | 35588 ft | 461 kts | 231° |
| 2026-04-23 12:14 | 23.65726 | 54.94380 | 35740 ft | 463 kts | 231° |
| 2026-04-23 12:14 | 23.63440 | 54.91879 | 35745 ft | 466 kts | 231° |
| 2026-04-23 12:15 | 23.58848 | 54.86865 | 35752 ft | 467 kts | 231° |
| 2026-04-23 12:15 | 23.54253 | 54.81861 | 35741 ft | 466 kts | 231° |
| 2026-04-23 12:16 | 23.49673 | 54.76878 | 35747 ft | 464 kts | 231° |
| 2026-04-23 12:16 | 23.45106 | 54.71910 | 35745 ft | 464 kts | 231° |
| 2026-04-23 12:17 | 23.40533 | 54.66941 | 35777 ft | 464 kts | 231° |
| 2026-04-23 12:17 | 23.38284 | 54.64500 | 36034 ft | 461 kts | 231° |
| 2026-04-23 12:17 | 23.36021 | 54.62048 | 36347 ft | 458 kts | 231° |
| 2026-04-23 12:18 | 23.33763 | 54.59601 | 36599 ft | 456 kts | 232° |
| 2026-04-23 12:18 | 23.31521 | 54.57172 | 36836 ft | 455 kts | 232° |
| 2026-04-23 12:18 | 23.29281 | 54.54744 | 37030 ft | 454 kts | 232° |
| 2026-04-23 12:18 | 23.27044 | 54.52321 | 37220 ft | 453 kts | 232° |
| 2026-04-23 12:19 | 23.24816 | 54.49908 | 37398 ft | 452 kts | 232° |
| 2026-04-23 12:19 | 23.22586 | 54.47494 | 37560 ft | 451 kts | 232° |
| 2026-04-23 12:19 | 23.20384 | 54.45113 | 37694 ft | 451 kts | 232° |
| 2026-04-23 12:19 | 23.18126 | 54.42670 | 37741 ft | 453 kts | 232° |
| 2026-04-23 12:20 | 23.13654 | 54.37834 | 37742 ft | 458 kts | 232° |
| 2026-04-23 12:20 | 23.09132 | 54.32957 | 37742 ft | 458 kts | 232° |
| 2026-04-23 12:21 | 23.04604 | 54.28081 | 37741 ft | 457 kts | 232° |
| 2026-04-23 12:21 | 23.00080 | 54.23211 | 37741 ft | 457 kts | 232° |
| 2026-04-23 12:22 | 22.95563 | 54.18353 | 37741 ft | 457 kts | 232° |
| 2026-04-23 12:22 | 22.91072 | 54.13526 | 37740 ft | 457 kts | 232° |
| 2026-04-23 12:23 | 22.86543 | 54.08665 | 37737 ft | 457 kts | 232° |
| 2026-04-23 12:23 | 22.82066 | 54.03809 | 37727 ft | 454 kts | 235° |
| 2026-04-23 12:24 | 22.78500 | 53.98311 | 37741 ft | 440 kts | 249° |
| 2026-04-23 12:24 | 22.76536 | 53.92147 | 37736 ft | 430 kts | 261° |
| 2026-04-23 12:25 | 22.75260 | 53.85822 | 37736 ft | 429 kts | 262° |
| 2026-04-23 12:25 | 22.74064 | 53.79472 | 37736 ft | 429 kts | 262° |
| 2026-04-23 12:26 | 22.72856 | 53.73164 | 37728 ft | 429 kts | 262° |
| 2026-04-23 12:26 | 22.71618 | 53.66832 | 37736 ft | 429 kts | 262° |
| 2026-04-23 12:27 | 22.70372 | 53.60514 | 37737 ft | 429 kts | 262° |
| 2026-04-23 12:27 | 22.69131 | 53.54232 | 37735 ft | 429 kts | 262° |
| 2026-04-23 12:28 | 22.67883 | 53.47919 | 37735 ft | 429 kts | 262° |
| 2026-04-23 12:28 | 22.66633 | 53.41616 | 37740 ft | 428 kts | 262° |
| 2026-04-23 12:29 | 22.65381 | 53.35309 | 37737 ft | 428 kts | 262° |
| 2026-04-23 12:29 | 22.64127 | 53.29005 | 37740 ft | 428 kts | 262° |
| 2026-04-23 12:30 | 22.62871 | 53.22709 | 37745 ft | 428 kts | 262° |
| 2026-04-23 12:30 | 22.61615 | 53.16421 | 37743 ft | 427 kts | 262° |
| 2026-04-23 12:31 | 22.60357 | 53.10137 | 37741 ft | 427 kts | 262° |
| 2026-04-23 12:31 | 22.59096 | 53.03850 | 37742 ft | 427 kts | 261° |
| 2026-04-23 12:32 | 22.57831 | 52.97560 | 37740 ft | 427 kts | 261° |
| 2026-04-23 12:32 | 22.56565 | 52.91275 | 37744 ft | 427 kts | 261° |
| 2026-04-23 12:33 | 22.55296 | 52.84996 | 37743 ft | 427 kts | 261° |
| 2026-04-23 12:33 | 22.54028 | 52.78728 | 37743 ft | 427 kts | 261° |
| 2026-04-23 12:34 | 22.52763 | 52.72493 | 37746 ft | 427 kts | 261° |
| 2026-04-23 12:34 | 22.51488 | 52.66219 | 37746 ft | 427 kts | 261° |
| 2026-04-23 12:35 | 22.50212 | 52.59952 | 37743 ft | 427 kts | 261° |
| 2026-04-23 12:35 | 22.48931 | 52.53674 | 37747 ft | 427 kts | 261° |
| 2026-04-23 12:36 | 22.47650 | 52.47407 | 37749 ft | 427 kts | 261° |
| 2026-04-23 12:36 | 22.46363 | 52.41131 | 37749 ft | 427 kts | 261° |
| 2026-04-23 12:37 | 22.45084 | 52.34901 | 37746 ft | 427 kts | 261° |
| 2026-04-23 12:37 | 22.43787 | 52.28601 | 37746 ft | 427 kts | 261° |
| 2026-04-23 12:38 | 22.42505 | 52.22380 | 37749 ft | 426 kts | 261° |
| 2026-04-23 12:38 | 22.41239 | 52.16110 | 37747 ft | 425 kts | 263° |
| 2026-04-23 12:39 | 22.40918 | 52.09779 | 37752 ft | 421 kts | 274° |
| 2026-04-23 12:39 | 22.41375 | 52.03459 | 37750 ft | 422 kts | 276° |
| 2026-04-23 12:40 | 22.41943 | 51.97146 | 37758 ft | 422 kts | 276° |
| 2026-04-23 12:40 | 22.42508 | 51.90862 | 37757 ft | 422 kts | 276° |
| 2026-04-23 12:41 | 22.43059 | 51.84542 | 37760 ft | 422 kts | 276° |
| 2026-04-23 12:41 | 22.43599 | 51.78228 | 37767 ft | 422 kts | 276° |
| 2026-04-23 12:42 | 22.44048 | 51.72929 | 37766 ft | 422 kts | 276° |
| 2026-04-23 12:42 | 22.44580 | 51.66642 | 37765 ft | 422 kts | 276° |
| 2026-04-23 12:43 | 22.45114 | 51.60316 | 37768 ft | 421 kts | 275° |
| 2026-04-23 12:43 | 22.45644 | 51.54002 | 37768 ft | 421 kts | 275° |
| 2026-04-23 12:44 | 22.46171 | 51.47692 | 37774 ft | 422 kts | 275° |
| 2026-04-23 12:44 | 22.46697 | 51.41370 | 37777 ft | 422 kts | 275° |
| 2026-04-23 12:45 | 22.47217 | 51.35093 | 37777 ft | 422 kts | 275° |
| 2026-04-23 12:45 | 22.47737 | 51.28785 | 37779 ft | 422 kts | 275° |
| 2026-04-23 12:46 | 22.48255 | 51.22460 | 37785 ft | 422 kts | 275° |
| 2026-04-23 12:46 | 22.48771 | 51.16135 | 37785 ft | 421 kts | 275° |
| 2026-04-23 12:47 | 22.49284 | 51.09817 | 37782 ft | 422 kts | 275° |
| 2026-04-23 12:47 | 22.49791 | 51.03538 | 37782 ft | 422 kts | 275° |
| 2026-04-23 12:48 | 22.50299 | 50.97220 | 37783 ft | 422 kts | 275° |
| 2026-04-23 12:48 | 22.50805 | 50.90899 | 37787 ft | 421 kts | 275° |
| 2026-04-23 12:49 | 22.51307 | 50.84588 | 37785 ft | 421 kts | 275° |
| 2026-04-23 12:49 | 22.51808 | 50.78269 | 37785 ft | 421 kts | 275° |
| 2026-04-23 12:50 | 22.52302 | 50.72000 | 37788 ft | 421 kts | 275° |
| 2026-04-23 12:50 | 22.52797 | 50.65687 | 37785 ft | 421 kts | 275° |
| 2026-04-23 12:51 | 22.53290 | 50.59367 | 37782 ft | 421 kts | 275° |
| 2026-04-23 12:51 | 22.53780 | 50.53051 | 37782 ft | 421 kts | 275° |
| 2026-04-23 12:52 | 22.54264 | 50.46781 | 37782 ft | 421 kts | 275° |
| 2026-04-23 12:52 | 22.54752 | 50.40431 | 37783 ft | 421 kts | 275° |
| 2026-04-23 12:53 | 22.55232 | 50.34154 | 37785 ft | 421 kts | 274° |
| 2026-04-23 12:53 | 22.55716 | 50.27796 | 37785 ft | 421 kts | 274° |
| 2026-04-23 12:54 | 22.56191 | 50.21517 | 37782 ft | 421 kts | 274° |
| 2026-04-23 12:54 | 22.56667 | 50.15194 | 37782 ft | 421 kts | 274° |
| 2026-04-23 12:55 | 22.57140 | 50.08877 | 37788 ft | 421 kts | 274° |
| 2026-04-23 12:55 | 22.57611 | 50.02546 | 37785 ft | 421 kts | 274° |
| 2026-04-23 12:56 | 22.58076 | 49.96270 | 37780 ft | 421 kts | 274° |
| 2026-04-23 12:56 | 22.58542 | 49.89944 | 37783 ft | 421 kts | 274° |
| 2026-04-23 12:57 | 22.59005 | 49.83631 | 37782 ft | 421 kts | 274° |
| 2026-04-23 12:57 | 22.59465 | 49.77315 | 37782 ft | 421 kts | 274° |
| 2026-04-23 12:58 | 22.59923 | 49.70992 | 37782 ft | 421 kts | 274° |
| 2026-04-23 12:58 | 22.60376 | 49.64711 | 37780 ft | 421 kts | 274° |
| 2026-04-23 12:59 | 22.60828 | 49.58401 | 37785 ft | 420 kts | 274° |
| 2026-04-23 12:59 | 22.61277 | 49.52105 | 37777 ft | 419 kts | 274° |
| 2026-04-23 13:00 | 22.61723 | 49.45823 | 37782 ft | 419 kts | 274° |
| 2026-04-23 13:00 | 22.62167 | 49.39531 | 37782 ft | 419 kts | 274° |
| 2026-04-23 13:01 | 22.62607 | 49.33246 | 37782 ft | 419 kts | 274° |
| 2026-04-23 13:01 | 22.63047 | 49.26945 | 37782 ft | 418 kts | 274° |
| 2026-04-23 13:02 | 22.63480 | 49.20701 | 37780 ft | 418 kts | 274° |
| 2026-04-23 13:02 | 22.63913 | 49.14414 | 37779 ft | 418 kts | 274° |
| 2026-04-23 13:03 | 22.64344 | 49.08130 | 37784 ft | 418 kts | 274° |
| 2026-04-23 13:03 | 22.64772 | 49.01840 | 37785 ft | 419 kts | 274° |
| 2026-04-23 13:04 | 22.65199 | 48.95549 | 37795 ft | 419 kts | 274° |
| 2026-04-23 13:04 | 22.65622 | 48.89265 | 37782 ft | 418 kts | 274° |
| 2026-04-23 13:05 | 22.66040 | 48.83019 | 37782 ft | 418 kts | 274° |
| 2026-04-23 13:05 | 22.66458 | 48.76737 | 37785 ft | 419 kts | 274° |
| 2026-04-23 13:06 | 22.67082 | 48.67302 | 37785 ft | 419 kts | 274° |
| 2026-04-23 13:07 | 22.67494 | 48.61017 | 37780 ft | 419 kts | 274° |
| 2026-04-23 13:07 | 22.67904 | 48.54732 | 37785 ft | 418 kts | 274° |
| 2026-04-23 13:08 | 22.68311 | 48.48449 | 37787 ft | 418 kts | 274° |
| 2026-04-23 13:08 | 22.68716 | 48.42152 | 37783 ft | 418 kts | 274° |
| 2026-04-23 13:09 | 22.69117 | 48.35899 | 37783 ft | 418 kts | 274° |
| 2026-04-23 13:09 | 22.69517 | 48.29605 | 37796 ft | 419 kts | 273° |
| 2026-04-23 13:10 | 22.69915 | 48.23313 | 37783 ft | 418 kts | 273° |
| 2026-04-23 13:10 | 22.70312 | 48.17013 | 37782 ft | 419 kts | 273° |
| 2026-04-23 13:11 | 22.70704 | 48.10727 | 37778 ft | 419 kts | 273° |
| 2026-04-23 13:11 | 22.71094 | 48.04430 | 37784 ft | 419 kts | 273° |
| 2026-04-23 13:12 | 22.71482 | 47.98134 | 37785 ft | 419 kts | 273° |
| 2026-04-23 13:12 | 22.71866 | 47.91876 | 37779 ft | 419 kts | 273° |
| 2026-04-23 13:13 | 22.72249 | 47.85577 | 37786 ft | 419 kts | 273° |
| 2026-04-23 13:13 | 22.72631 | 47.79265 | 37785 ft | 419 kts | 273° |
| 2026-04-23 13:14 | 22.73009 | 47.72969 | 37790 ft | 419 kts | 273° |
| 2026-04-23 13:14 | 22.73383 | 47.66705 | 37801 ft | 419 kts | 273° |
| 2026-04-23 13:15 | 22.73757 | 47.60402 | 37794 ft | 418 kts | 273° |
| 2026-04-23 13:15 | 22.74127 | 47.54115 | 37798 ft | 418 kts | 273° |
| 2026-04-23 13:16 | 22.74495 | 47.47824 | 37803 ft | 418 kts | 273° |
| 2026-04-23 13:16 | 22.74858 | 47.41583 | 37801 ft | 417 kts | 273° |
| 2026-04-23 13:17 | 22.75220 | 47.35303 | 37802 ft | 418 kts | 273° |
| 2026-04-23 13:17 | 22.75580 | 47.29025 | 37809 ft | 417 kts | 273° |
| 2026-04-23 13:18 | 22.75938 | 47.22741 | 37806 ft | 417 kts | 273° |
| 2026-04-23 13:18 | 22.76294 | 47.16461 | 37809 ft | 417 kts | 273° |
| 2026-04-23 13:19 | 22.76763 | 47.10191 | 37811 ft | 417 kts | 275° |
| 2026-04-23 13:19 | 22.77295 | 47.03927 | 37820 ft | 417 kts | 275° |
| 2026-04-23 13:20 | 22.77808 | 46.97682 | 37818 ft | 416 kts | 274° |
| 2026-04-23 13:20 | 22.78303 | 46.91440 | 37818 ft | 415 kts | 274° |
| 2026-04-23 13:21 | 22.78789 | 46.85200 | 37818 ft | 415 kts | 274° |
| 2026-04-23 13:21 | 22.79270 | 46.78995 | 37820 ft | 415 kts | 274° |
| 2026-04-23 13:22 | 22.79752 | 46.72749 | 37821 ft | 415 kts | 274° |
| 2026-04-23 13:22 | 22.80232 | 46.66510 | 37822 ft | 415 kts | 274° |
| 2026-04-23 13:23 | 22.80707 | 46.60297 | 37826 ft | 415 kts | 274° |
| 2026-04-23 13:23 | 22.81183 | 46.54045 | 37820 ft | 415 kts | 274° |
| 2026-04-23 13:24 | 22.81653 | 46.47839 | 37826 ft | 416 kts | 274° |
| 2026-04-23 13:24 | 22.82123 | 46.41606 | 37815 ft | 414 kts | 274° |
| 2026-04-23 13:25 | 22.82593 | 46.35379 | 37811 ft | 414 kts | 274° |
| 2026-04-23 13:25 | 22.83054 | 46.29143 | 37808 ft | 415 kts | 274° |
| 2026-04-23 13:26 | 22.83511 | 46.22900 | 37798 ft | 415 kts | 274° |
| 2026-04-23 13:26 | 22.83965 | 46.16696 | 37776 ft | 415 kts | 274° |
| 2026-04-23 13:27 | 22.84420 | 46.10444 | 37793 ft | 416 kts | 274° |
| 2026-04-23 13:27 | 22.84799 | 46.05226 | 37781 ft | 417 kts | 274° |
| 2026-04-23 13:28 | 22.85252 | 45.98962 | 37774 ft | 417 kts | 274° |
| 2026-04-23 13:28 | 22.85703 | 45.92691 | 37779 ft | 417 kts | 274° |
| 2026-04-23 13:29 | 22.86152 | 45.86405 | 37773 ft | 418 kts | 274° |
| 2026-04-23 13:29 | 22.86598 | 45.80125 | 37766 ft | 418 kts | 274° |
| 2026-04-23 13:30 | 22.87040 | 45.73865 | 37762 ft | 418 kts | 273° |
| 2026-04-23 13:30 | 22.87482 | 45.67572 | 37763 ft | 419 kts | 273° |
| 2026-04-23 13:31 | 22.87921 | 45.61276 | 37763 ft | 419 kts | 273° |
| 2026-04-23 13:31 | 22.88359 | 45.54981 | 37762 ft | 419 kts | 273° |
| 2026-04-23 13:32 | 22.88793 | 45.48685 | 37765 ft | 419 kts | 273° |
| 2026-04-23 13:32 | 22.89226 | 45.42387 | 37760 ft | 419 kts | 273° |
| 2026-04-23 13:33 | 22.89656 | 45.36086 | 37762 ft | 419 kts | 273° |
| 2026-04-23 13:33 | 22.90083 | 45.29809 | 37757 ft | 419 kts | 273° |
| 2026-04-23 13:34 | 22.90508 | 45.23504 | 37758 ft | 418 kts | 273° |
| 2026-04-23 13:34 | 22.90929 | 45.17204 | 37760 ft | 418 kts | 273° |
| 2026-04-23 13:35 | 22.91349 | 45.10910 | 37755 ft | 418 kts | 272° |
| 2026-04-23 13:35 | 22.91767 | 45.04655 | 37758 ft | 418 kts | 272° |
| 2026-04-23 13:36 | 22.92181 | 44.98346 | 37753 ft | 418 kts | 272° |
| 2026-04-23 13:36 | 22.92590 | 44.92042 | 37758 ft | 419 kts | 272° |
| 2026-04-23 13:37 | 22.92998 | 44.85732 | 37757 ft | 419 kts | 272° |
| 2026-04-23 13:37 | 22.93406 | 44.79411 | 37761 ft | 420 kts | 272° |
| 2026-04-23 13:38 | 22.93812 | 44.73092 | 37759 ft | 420 kts | 272° |
| 2026-04-23 13:38 | 22.94471 | 44.66840 | 37760 ft | 421 kts | 280° |
| 2026-04-23 13:39 | 22.96129 | 44.60707 | 37763 ft | 424 kts | 284° |
| 2026-04-23 13:39 | 22.98002 | 44.54630 | 37760 ft | 424 kts | 285° |
| 2026-04-23 13:40 | 22.99889 | 44.48598 | 37758 ft | 424 kts | 285° |
| 2026-04-23 13:40 | 23.01775 | 44.42520 | 37760 ft | 424 kts | 285° |
| 2026-04-23 13:41 | 23.03649 | 44.36433 | 37763 ft | 424 kts | 284° |
| 2026-04-23 13:41 | 23.05504 | 44.30388 | 37763 ft | 424 kts | 284° |
| 2026-04-23 13:42 | 23.07367 | 44.24311 | 37758 ft | 424 kts | 284° |
| 2026-04-23 13:42 | 23.09230 | 44.18226 | 37760 ft | 424 kts | 284° |
| 2026-04-23 13:43 | 23.11088 | 44.12148 | 37761 ft | 423 kts | 284° |
| 2026-04-23 13:43 | 23.12941 | 44.06076 | 37765 ft | 423 kts | 284° |
| 2026-04-23 13:44 | 23.14778 | 44.00048 | 37771 ft | 423 kts | 284° |
| 2026-04-23 13:44 | 23.16622 | 43.93984 | 37772 ft | 423 kts | 284° |
| 2026-04-23 13:45 | 23.18472 | 43.87897 | 37776 ft | 424 kts | 284° |
| 2026-04-23 13:45 | 23.20319 | 43.81808 | 37783 ft | 424 kts | 284° |
| 2026-04-23 13:46 | 23.22171 | 43.75691 | 37784 ft | 426 kts | 284° |
| 2026-04-23 13:46 | 23.24009 | 43.69611 | 37791 ft | 426 kts | 284° |
| 2026-04-23 13:47 | 23.25860 | 43.63482 | 37800 ft | 426 kts | 284° |
| 2026-04-23 13:47 | 23.27710 | 43.57348 | 37811 ft | 427 kts | 283° |
| 2026-04-23 13:48 | 23.29563 | 43.51199 | 37810 ft | 428 kts | 283° |
| 2026-04-23 13:48 | 23.31411 | 43.45047 | 37822 ft | 428 kts | 283° |
| 2026-04-23 13:49 | 23.33256 | 43.38896 | 37831 ft | 427 kts | 283° |
| 2026-04-23 13:49 | 23.35085 | 43.32791 | 37844 ft | 427 kts | 283° |
| 2026-04-23 13:50 | 23.36926 | 43.26639 | 37850 ft | 427 kts | 283° |
| 2026-04-23 13:50 | 23.38766 | 43.20479 | 37853 ft | 427 kts | 283° |
| 2026-04-23 13:51 | 23.40603 | 43.14316 | 37861 ft | 429 kts | 283° |
| 2026-04-23 13:51 | 23.42449 | 43.08126 | 37865 ft | 429 kts | 283° |
| 2026-04-23 13:52 | 23.44270 | 43.01976 | 37868 ft | 429 kts | 283° |
| 2026-04-23 13:52 | 23.46100 | 42.95785 | 37870 ft | 429 kts | 283° |
| 2026-04-23 13:53 | 23.47932 | 42.89584 | 37872 ft | 430 kts | 283° |
| 2026-04-23 13:53 | 23.49761 | 42.83385 | 37870 ft | 430 kts | 283° |
| 2026-04-23 13:54 | 23.51589 | 42.77180 | 37861 ft | 430 kts | 283° |
| 2026-04-23 13:54 | 23.53410 | 42.71016 | 37861 ft | 429 kts | 283° |
| 2026-04-23 13:55 | 23.55234 | 42.64815 | 37854 ft | 429 kts | 283° |
| 2026-04-23 13:55 | 23.57058 | 42.58605 | 37843 ft | 429 kts | 283° |
| 2026-04-23 13:56 | 23.58872 | 42.52425 | 37838 ft | 427 kts | 283° |
| 2026-04-23 13:56 | 23.60678 | 42.46259 | 37836 ft | 427 kts | 283° |
| 2026-04-23 13:57 | 23.62480 | 42.40095 | 37862 ft | 427 kts | 283° |
| 2026-04-23 13:57 | 23.64275 | 42.33954 | 37831 ft | 423 kts | 283° |
| 2026-04-23 13:58 | 23.66048 | 42.27881 | 37821 ft | 422 kts | 283° |
| 2026-04-23 13:58 | 23.67824 | 42.21774 | 37823 ft | 422 kts | 283° |
| 2026-04-23 13:59 | 23.69587 | 42.15671 | 37823 ft | 420 kts | 283° |
| 2026-04-23 13:59 | 23.71339 | 42.09608 | 37827 ft | 417 kts | 283° |
| 2026-04-23 14:00 | 23.72791 | 42.04578 | 37822 ft | 417 kts | 283° |
| 2026-04-23 14:00 | 23.74817 | 41.97554 | 37852 ft | 417 kts | 283° |
| 2026-04-23 14:01 | 23.76558 | 41.91542 | 37830 ft | 413 kts | 283° |
| 2026-04-23 14:01 | 23.78283 | 41.85563 | 37824 ft | 412 kts | 283° |
| 2026-04-23 14:02 | 23.80004 | 41.79585 | 37828 ft | 412 kts | 283° |
| 2026-04-23 14:02 | 23.81726 | 41.73613 | 37825 ft | 412 kts | 283° |
| 2026-04-23 14:03 | 23.83425 | 41.67690 | 37825 ft | 411 kts | 283° |
| 2026-04-23 14:03 | 23.85130 | 41.61729 | 37826 ft | 411 kts | 283° |
| 2026-04-23 14:04 | 23.86835 | 41.55763 | 37833 ft | 411 kts | 282° |
| 2026-04-23 14:04 | 23.88544 | 41.49778 | 37829 ft | 412 kts | 282° |
| 2026-04-23 14:05 | 23.90231 | 41.43817 | 37827 ft | 413 kts | 282° |
| 2026-04-23 14:05 | 23.91929 | 41.37818 | 37829 ft | 413 kts | 282° |
| 2026-04-23 14:06 | 23.93632 | 41.31818 | 37833 ft | 413 kts | 282° |
| 2026-04-23 14:06 | 23.95332 | 41.25822 | 37827 ft | 412 kts | 282° |
| 2026-04-23 14:07 | 23.97027 | 41.19829 | 37828 ft | 412 kts | 282° |
| 2026-04-23 14:07 | 23.99551 | 41.10890 | 37838 ft | 411 kts | 282° |
| 2026-04-23 14:08 | 24.01238 | 41.04904 | 37837 ft | 411 kts | 282° |
| 2026-04-23 14:08 | 24.02918 | 40.98933 | 37834 ft | 411 kts | 282° |
| 2026-04-23 14:09 | 24.04600 | 40.92959 | 37829 ft | 411 kts | 282° |
| 2026-04-23 14:09 | 24.06276 | 40.86988 | 37831 ft | 410 kts | 282° |
| 2026-04-23 14:10 | 24.07944 | 40.81022 | 37832 ft | 410 kts | 282° |
| 2026-04-23 14:10 | 24.09599 | 40.75095 | 37832 ft | 410 kts | 282° |
| 2026-04-23 14:11 | 24.11266 | 40.69120 | 37831 ft | 410 kts | 282° |
| 2026-04-23 14:11 | 24.12934 | 40.63136 | 37834 ft | 410 kts | 282° |
| 2026-04-23 14:12 | 24.14601 | 40.57149 | 37834 ft | 410 kts | 282° |
| 2026-04-23 14:12 | 24.16421 | 40.51256 | 37838 ft | 415 kts | 288° |
| 2026-04-23 14:13 | 24.18991 | 40.45550 | 37842 ft | 418 kts | 290° |
| 2026-04-23 14:13 | 24.21241 | 40.40853 | 37836 ft | 419 kts | 291° |
| 2026-04-23 14:14 | 24.23970 | 40.35210 | 37841 ft | 419 kts | 291° |
| 2026-04-23 14:14 | 24.26689 | 40.29557 | 37845 ft | 419 kts | 290° |
| 2026-04-23 14:15 | 24.29398 | 40.23897 | 37846 ft | 419 kts | 290° |
| 2026-04-23 14:15 | 24.32107 | 40.18221 | 37849 ft | 420 kts | 290° |
| 2026-04-23 14:16 | 24.34805 | 40.12563 | 37848 ft | 420 kts | 290° |
| 2026-04-23 14:16 | 24.37515 | 40.06877 | 37848 ft | 420 kts | 290° |
| 2026-04-23 14:17 | 24.40221 | 40.01189 | 37853 ft | 420 kts | 290° |
| 2026-04-23 14:17 | 24.42935 | 39.95476 | 37845 ft | 422 kts | 290° |
| 2026-04-23 14:18 | 24.45628 | 39.89802 | 37839 ft | 422 kts | 290° |
| 2026-04-23 14:18 | 24.48344 | 39.84075 | 37836 ft | 422 kts | 290° |
| 2026-04-23 14:19 | 24.51056 | 39.78350 | 37836 ft | 422 kts | 290° |
| 2026-04-23 14:19 | 24.53989 | 39.72715 | 37829 ft | 431 kts | 297° |
| 2026-04-23 14:20 | 24.58183 | 39.67834 | 37831 ft | 450 kts | 312° |
| 2026-04-23 14:20 | 24.63186 | 39.63682 | 37859 ft | 454 kts | 314° |
| 2026-04-23 14:21 | 24.68336 | 39.59629 | 37856 ft | 455 kts | 314° |
| 2026-04-23 14:21 | 24.73496 | 39.55560 | 37855 ft | 456 kts | 314° |
| 2026-04-23 14:22 | 24.78625 | 39.51473 | 37849 ft | 456 kts | 314° |
| 2026-04-23 14:22 | 24.83720 | 39.47392 | 37851 ft | 456 kts | 314° |
| 2026-04-23 14:23 | 24.88855 | 39.43273 | 37858 ft | 457 kts | 314° |
| 2026-04-23 14:23 | 24.93994 | 39.39142 | 37836 ft | 457 kts | 314° |
| 2026-04-23 14:24 | 24.99137 | 39.35010 | 37851 ft | 457 kts | 313° |
| 2026-04-23 14:24 | 25.04290 | 39.30866 | 37844 ft | 459 kts | 313° |
| 2026-04-23 14:25 | 25.09443 | 39.26717 | 37838 ft | 459 kts | 313° |
| 2026-04-23 14:25 | 25.14603 | 39.22558 | 37844 ft | 459 kts | 313° |
| 2026-04-23 14:26 | 25.19733 | 39.18350 | 37843 ft | 454 kts | 310° |
| 2026-04-23 14:26 | 25.22015 | 39.15984 | 37836 ft | 443 kts | 303° |
| 2026-04-23 14:26 | 25.23936 | 39.13369 | 37838 ft | 434 kts | 296° |
| 2026-04-23 14:27 | 25.27285 | 39.07894 | 37826 ft | 432 kts | 294° |
| 2026-04-23 14:27 | 25.30528 | 39.02306 | 37812 ft | 432 kts | 294° |
| 2026-04-23 14:28 | 25.33763 | 38.96718 | 37817 ft | 431 kts | 294° |
| 2026-04-23 14:28 | 25.37005 | 38.91141 | 37798 ft | 431 kts | 294° |
| 2026-04-23 14:29 | 25.40266 | 38.85551 | 37804 ft | 431 kts | 294° |
| 2026-04-23 14:29 | 25.43524 | 38.79966 | 37791 ft | 432 kts | 294° |
| 2026-04-23 14:30 | 25.46777 | 38.74379 | 37783 ft | 432 kts | 294° |
| 2026-04-23 14:30 | 25.50028 | 38.68787 | 37786 ft | 432 kts | 294° |
| 2026-04-23 14:31 | 25.53261 | 38.63215 | 37777 ft | 433 kts | 294° |
| 2026-04-23 14:31 | 25.56519 | 38.57594 | 37777 ft | 433 kts | 294° |
| 2026-04-23 14:32 | 25.59775 | 38.51973 | 37777 ft | 433 kts | 294° |
| 2026-04-23 14:32 | 25.63010 | 38.46382 | 37774 ft | 433 kts | 294° |
| 2026-04-23 14:33 | 25.66260 | 38.40757 | 37774 ft | 433 kts | 294° |
| 2026-04-23 14:33 | 25.69513 | 38.35118 | 37784 ft | 433 kts | 294° |
| 2026-04-23 14:34 | 25.72755 | 38.29495 | 37779 ft | 432 kts | 294° |
| 2026-04-23 14:34 | 25.75988 | 38.23878 | 37780 ft | 432 kts | 294° |
| 2026-04-23 14:35 | 25.79219 | 38.18256 | 37791 ft | 432 kts | 294° |
| 2026-04-23 14:35 | 25.82425 | 38.12676 | 37773 ft | 430 kts | 294° |
| 2026-04-23 14:36 | 25.85639 | 38.07075 | 37779 ft | 431 kts | 294° |
| 2026-04-23 14:36 | 25.88853 | 38.01459 | 37780 ft | 432 kts | 294° |
| 2026-04-23 14:37 | 25.92074 | 37.95821 | 37785 ft | 432 kts | 294° |
| 2026-04-23 14:37 | 25.95286 | 37.90197 | 37810 ft | 430 kts | 294° |
| 2026-04-23 14:38 | 25.98452 | 37.84572 | 37807 ft | 427 kts | 291° |
| 2026-04-23 14:38 | 26.00671 | 37.78580 | 37816 ft | 413 kts | 278° |
| 2026-04-23 14:39 | 26.01733 | 37.72338 | 37820 ft | 410 kts | 274° |
| 2026-04-23 14:39 | 26.02575 | 37.66080 | 37818 ft | 409 kts | 272° |
| 2026-04-23 14:40 | 26.03390 | 37.59810 | 37819 ft | 410 kts | 273° |
| 2026-04-23 14:40 | 26.04225 | 37.53544 | 37825 ft | 410 kts | 273° |
| 2026-04-23 14:41 | 26.05071 | 37.47277 | 37820 ft | 410 kts | 273° |
| 2026-04-23 14:41 | 26.05913 | 37.41002 | 37811 ft | 410 kts | 272° |
| 2026-04-23 14:42 | 26.06757 | 37.34761 | 37808 ft | 411 kts | 272° |
| 2026-04-23 14:42 | 26.07594 | 37.28464 | 37805 ft | 411 kts | 272° |
| 2026-04-23 14:43 | 26.08420 | 37.22169 | 37805 ft | 411 kts | 272° |
| 2026-04-23 14:43 | 26.09248 | 37.15885 | 37799 ft | 410 kts | 272° |
| 2026-04-23 14:44 | 26.10071 | 37.09630 | 37791 ft | 410 kts | 272° |
| 2026-04-23 14:44 | 26.10898 | 37.03334 | 37788 ft | 410 kts | 272° |
| 2026-04-23 14:45 | 26.11722 | 36.97041 | 37792 ft | 410 kts | 272° |
| 2026-04-23 14:45 | 26.12534 | 36.90815 | 37785 ft | 409 kts | 272° |
| 2026-04-23 14:46 | 26.13348 | 36.84545 | 37778 ft | 409 kts | 272° |
| 2026-04-23 14:46 | 26.14159 | 36.78278 | 37777 ft | 409 kts | 272° |
| 2026-04-23 14:47 | 26.14969 | 36.72002 | 37780 ft | 409 kts | 272° |
| 2026-04-23 14:47 | 26.15774 | 36.65743 | 37776 ft | 409 kts | 272° |
| 2026-04-23 14:48 | 26.16577 | 36.59477 | 37771 ft | 409 kts | 272° |
| 2026-04-23 14:48 | 26.17604 | 36.53236 | 37774 ft | 415 kts | 279° |
| 2026-04-23 14:49 | 26.19940 | 36.47260 | 37774 ft | 431 kts | 293° |
| 2026-04-23 14:49 | 26.21721 | 36.44517 | 37774 ft | 442 kts | 301° |
| 2026-04-23 14:49 | 26.23764 | 36.41985 | 37773 ft | 447 kts | 303° |
| 2026-04-23 14:50 | 26.28108 | 36.36978 | 37774 ft | 450 kts | 304° |
| 2026-04-23 14:50 | 26.32498 | 36.32011 | 37772 ft | 449 kts | 304° |
| 2026-04-23 14:51 | 26.36853 | 36.27028 | 37773 ft | 448 kts | 304° |
| 2026-04-23 14:51 | 26.41187 | 36.22025 | 37775 ft | 448 kts | 303° |
| 2026-04-23 14:52 | 26.45514 | 36.17013 | 37772 ft | 449 kts | 303° |
| 2026-04-23 14:52 | 26.49822 | 36.12021 | 37769 ft | 449 kts | 303° |
| 2026-04-23 14:53 | 26.54159 | 36.06991 | 37775 ft | 449 kts | 303° |
| 2026-04-23 14:53 | 26.58492 | 36.01961 | 37775 ft | 449 kts | 303° |
| 2026-04-23 14:54 | 26.62822 | 35.96929 | 37772 ft | 449 kts | 303° |
| 2026-04-23 14:54 | 26.67158 | 35.91884 | 37768 ft | 449 kts | 303° |
| 2026-04-23 14:55 | 26.71455 | 35.86879 | 37776 ft | 448 kts | 303° |
| 2026-04-23 14:55 | 26.75773 | 35.81842 | 37771 ft | 448 kts | 303° |
| 2026-04-23 14:56 | 26.80092 | 35.76802 | 37770 ft | 448 kts | 303° |
| 2026-04-23 14:56 | 26.84411 | 35.71756 | 37771 ft | 448 kts | 303° |
| 2026-04-23 14:57 | 26.88698 | 35.66733 | 37770 ft | 449 kts | 303° |
| 2026-04-23 14:57 | 26.93015 | 35.61673 | 37768 ft | 449 kts | 303° |
| 2026-04-23 14:58 | 26.97332 | 35.56610 | 37768 ft | 449 kts | 303° |
| 2026-04-23 14:58 | 27.00912 | 35.52405 | 37765 ft | 449 kts | 303° |
| 2026-04-23 14:59 | 27.05220 | 35.47342 | 37779 ft | 447 kts | 303° |
| 2026-04-23 14:59 | 27.09503 | 35.42307 | 37768 ft | 444 kts | 303° |
| 2026-04-23 15:00 | 27.13759 | 35.37289 | 37767 ft | 444 kts | 303° |
| 2026-04-23 15:00 | 27.18014 | 35.32266 | 37770 ft | 444 kts | 303° |
| 2026-04-23 15:01 | 27.22244 | 35.27269 | 37768 ft | 444 kts | 303° |
| 2026-04-23 15:01 | 27.26495 | 35.22240 | 37767 ft | 444 kts | 303° |
| 2026-04-23 15:02 | 27.30743 | 35.17211 | 37768 ft | 444 kts | 303° |
| 2026-04-23 15:02 | 27.34998 | 35.12168 | 37755 ft | 444 kts | 303° |
| 2026-04-23 15:03 | 27.39252 | 35.07120 | 37751 ft | 444 kts | 303° |
| 2026-04-23 15:03 | 27.43478 | 35.02098 | 37752 ft | 444 kts | 303° |
| 2026-04-23 15:04 | 27.47737 | 34.97029 | 37753 ft | 445 kts | 303° |
| 2026-04-23 15:04 | 27.52002 | 34.91953 | 37760 ft | 446 kts | 303° |
| 2026-04-23 15:05 | 27.56517 | 34.87053 | 37760 ft | 452 kts | 307° |
| 2026-04-23 15:05 | 27.61167 | 34.82281 | 37771 ft | 452 kts | 307° |
| 2026-04-23 15:06 | 27.65760 | 34.77509 | 37768 ft | 451 kts | 306° |
| 2026-04-23 15:06 | 27.70347 | 34.72670 | 37797 ft | 451 kts | 306° |
| 2026-04-23 15:07 | 27.74916 | 34.67821 | 37783 ft | 450 kts | 306° |
| 2026-04-23 15:07 | 27.79477 | 34.62975 | 37793 ft | 450 kts | 307° |
| 2026-04-23 15:08 | 27.84041 | 34.58121 | 37796 ft | 450 kts | 307° |
| 2026-04-23 15:09 | 27.90864 | 34.50857 | 37802 ft | 450 kts | 307° |
| 2026-04-23 15:09 | 27.95431 | 34.45987 | 37806 ft | 450 kts | 307° |
| 2026-04-23 15:10 | 27.99911 | 34.41037 | 37802 ft | 445 kts | 302° |
| 2026-04-23 15:10 | 28.03880 | 34.35742 | 37812 ft | 443 kts | 300° |
| 2026-04-23 15:11 | 28.07786 | 34.30349 | 37816 ft | 442 kts | 300° |
| 2026-04-23 15:11 | 28.11664 | 34.24951 | 37814 ft | 442 kts | 300° |
| 2026-04-23 15:12 | 28.15525 | 34.19586 | 37852 ft | 442 kts | 301° |
| 2026-04-23 15:12 | 28.19421 | 34.14171 | 37843 ft | 443 kts | 301° |
| 2026-04-23 15:13 | 28.23317 | 34.08762 | 37860 ft | 443 kts | 301° |
| 2026-04-23 15:13 | 28.27215 | 34.03341 | 37858 ft | 443 kts | 301° |
| 2026-04-23 15:14 | 28.31099 | 33.97923 | 37867 ft | 443 kts | 301° |
| 2026-04-23 15:14 | 28.34982 | 33.92496 | 37850 ft | 443 kts | 301° |
| 2026-04-23 15:15 | 28.38873 | 33.87063 | 37871 ft | 443 kts | 301° |
| 2026-04-23 15:15 | 28.42741 | 33.81656 | 37874 ft | 443 kts | 301° |
| 2026-04-23 15:16 | 28.46630 | 33.76213 | 38183 ft | 442 kts | 301° |
| 2026-04-23 15:16 | 28.48567 | 33.73505 | 38452 ft | 438 kts | 301° |
| 2026-04-23 15:16 | 28.50482 | 33.70831 | 38618 ft | 436 kts | 300° |
| 2026-04-23 15:17 | 28.54309 | 33.65460 | 38743 ft | 439 kts | 301° |
| 2026-04-23 15:17 | 28.56237 | 33.62748 | 38856 ft | 440 kts | 301° |
| 2026-04-23 15:17 | 28.58161 | 33.60042 | 38958 ft | 440 kts | 301° |
| 2026-04-23 15:17 | 28.60089 | 33.57333 | 39112 ft | 440 kts | 301° |
| 2026-04-23 15:18 | 28.61989 | 33.54662 | 39261 ft | 440 kts | 301° |
| 2026-04-23 15:18 | 28.63919 | 33.51952 | 39386 ft | 440 kts | 301° |
| 2026-04-23 15:18 | 28.65848 | 33.49241 | 39515 ft | 439 kts | 301° |
| 2026-04-23 15:18 | 28.67771 | 33.46528 | 39639 ft | 439 kts | 300° |
| 2026-04-23 15:19 | 28.69690 | 33.43816 | 39763 ft | 439 kts | 300° |
| 2026-04-23 15:19 | 28.73527 | 33.38387 | 39849 ft | 441 kts | 300° |
| 2026-04-23 15:20 | 28.77376 | 33.32939 | 39842 ft | 441 kts | 300° |
| 2026-04-23 15:20 | 28.81207 | 33.27515 | 39842 ft | 440 kts | 300° |
| 2026-04-23 15:21 | 28.85054 | 33.22060 | 39837 ft | 440 kts | 300° |
| 2026-04-23 15:21 | 28.88895 | 33.16605 | 39839 ft | 440 kts | 300° |
| 2026-04-23 15:22 | 28.92710 | 33.11179 | 39837 ft | 441 kts | 301° |
| 2026-04-23 15:22 | 28.96557 | 33.05702 | 39833 ft | 442 kts | 301° |
| 2026-04-23 15:23 | 29.00402 | 33.00221 | 39837 ft | 442 kts | 301° |
| 2026-04-23 15:23 | 29.04248 | 32.94731 | 39841 ft | 442 kts | 301° |
| 2026-04-23 15:24 | 29.08088 | 32.89242 | 39846 ft | 442 kts | 301° |
| 2026-04-23 15:24 | 29.11907 | 32.83774 | 39847 ft | 442 kts | 301° |
| 2026-04-23 15:25 | 29.15753 | 32.78262 | 39855 ft | 443 kts | 301° |
| 2026-04-23 15:25 | 29.19595 | 32.72749 | 39851 ft | 443 kts | 301° |
| 2026-04-23 15:26 | 29.23438 | 32.67227 | 39861 ft | 443 kts | 301° |
| 2026-04-23 15:26 | 29.27277 | 32.61703 | 39895 ft | 443 kts | 301° |
| 2026-04-23 15:27 | 29.31109 | 32.56168 | 39878 ft | 444 kts | 301° |
| 2026-04-23 15:27 | 29.34924 | 32.50603 | 39901 ft | 444 kts | 301° |
| 2026-04-23 15:28 | 29.38715 | 32.45063 | 39892 ft | 444 kts | 301° |
| 2026-04-23 15:28 | 29.42536 | 32.39481 | 39906 ft | 445 kts | 301° |
| 2026-04-23 15:29 | 29.46354 | 32.33901 | 39918 ft | 445 kts | 301° |
| 2026-04-23 15:29 | 29.50180 | 32.28300 | 39917 ft | 445 kts | 301° |
| 2026-04-23 15:30 | 29.54002 | 32.22695 | 39925 ft | 446 kts | 302° |
| 2026-04-23 15:30 | 29.57799 | 32.17121 | 39925 ft | 446 kts | 301° |
| 2026-04-23 15:31 | 29.61623 | 32.11503 | 39927 ft | 445 kts | 301° |
| 2026-04-23 15:31 | 29.65441 | 32.05884 | 39940 ft | 445 kts | 302° |
| 2026-04-23 15:32 | 29.69257 | 32.00258 | 39932 ft | 445 kts | 302° |
| 2026-04-23 15:32 | 29.73040 | 31.94675 | 39936 ft | 445 kts | 302° |
| 2026-04-23 15:33 | 29.76845 | 31.89051 | 39944 ft | 445 kts | 302° |
| 2026-04-23 15:33 | 29.80631 | 31.83399 | 39939 ft | 445 kts | 301° |
| 2026-04-23 15:34 | 29.84295 | 31.77661 | 39939 ft | 444 kts | 300° |
| 2026-04-23 15:34 | 29.87947 | 31.71895 | 39931 ft | 445 kts | 301° |
| 2026-04-23 15:35 | 29.91590 | 31.66177 | 39934 ft | 445 kts | 301° |
| 2026-04-23 15:35 | 29.95286 | 31.60447 | 39925 ft | 445 kts | 301° |
| 2026-04-23 15:36 | 29.98998 | 31.54719 | 39892 ft | 445 kts | 301° |
| 2026-04-23 15:36 | 30.02703 | 31.48988 | 39884 ft | 445 kts | 301° |
| 2026-04-23 15:37 | 30.06578 | 31.43379 | 39883 ft | 450 kts | 309° |
| 2026-04-23 15:37 | 30.10646 | 31.39537 | 39885 ft | 461 kts | 322° |
| 2026-04-23 15:37 | 30.14545 | 31.37334 | 39899 ft | 472 kts | 334° |
| 2026-04-23 15:38 | 30.17686 | 31.36194 | 39884 ft | 476 kts | 337° |
| 2026-04-23 15:38 | 30.24072 | 31.34229 | 39889 ft | 478 kts | 339° |
| 2026-04-23 15:39 | 30.30528 | 31.32339 | 39890 ft | 478 kts | 339° |
| 2026-04-23 15:39 | 30.36971 | 31.30416 | 39890 ft | 478 kts | 339° |
| 2026-04-23 15:40 | 30.43407 | 31.28460 | 39893 ft | 477 kts | 339° |
| 2026-04-23 15:40 | 30.49826 | 31.26497 | 39889 ft | 477 kts | 339° |
| 2026-04-23 15:41 | 30.56249 | 31.24532 | 39889 ft | 477 kts | 339° |
| 2026-04-23 15:41 | 30.62662 | 31.22567 | 39892 ft | 476 kts | 339° |
| 2026-04-23 15:42 | 30.69030 | 31.20616 | 39905 ft | 476 kts | 339° |
| 2026-04-23 15:42 | 30.75432 | 31.18650 | 39898 ft | 476 kts | 339° |
| 2026-04-23 15:43 | 30.81835 | 31.16681 | 39903 ft | 475 kts | 339° |
| 2026-04-23 15:43 | 30.88239 | 31.14709 | 39896 ft | 475 kts | 339° |
| 2026-04-23 15:44 | 30.94636 | 31.12737 | 39906 ft | 475 kts | 339° |
| 2026-04-23 15:44 | 31.01027 | 31.10764 | 39907 ft | 475 kts | 339° |
| 2026-04-23 15:45 | 31.07397 | 31.08795 | 39909 ft | 475 kts | 339° |
| 2026-04-23 15:45 | 31.13793 | 31.06814 | 39917 ft | 475 kts | 339° |
| 2026-04-23 15:46 | 31.19125 | 31.05162 | 39942 ft | 475 kts | 339° |
| 2026-04-23 15:46 | 31.25521 | 31.03177 | 39920 ft | 475 kts | 339° |
| 2026-04-23 15:47 | 31.31913 | 31.01190 | 39917 ft | 475 kts | 338° |
| 2026-04-23 15:47 | 31.38305 | 30.99201 | 39917 ft | 475 kts | 338° |
| 2026-04-23 15:48 | 31.44689 | 30.97211 | 39924 ft | 475 kts | 338° |
| 2026-04-23 15:48 | 31.51043 | 30.95228 | 39926 ft | 475 kts | 339° |
| 2026-04-23 15:49 | 31.57432 | 30.93231 | 39921 ft | 474 kts | 339° |
| 2026-04-23 15:49 | 31.63812 | 30.91234 | 39919 ft | 474 kts | 339° |
| 2026-04-23 15:50 | 31.70147 | 30.89248 | 39924 ft | 474 kts | 339° |
| 2026-04-23 15:50 | 31.76527 | 30.87245 | 39922 ft | 474 kts | 339° |
| 2026-04-23 15:51 | 31.82899 | 30.85242 | 39922 ft | 474 kts | 338° |
| 2026-04-23 15:51 | 31.89286 | 30.83232 | 39922 ft | 474 kts | 338° |
| 2026-04-23 15:52 | 31.95659 | 30.81222 | 39922 ft | 474 kts | 338° |
| 2026-04-23 15:52 | 32.02040 | 30.79208 | 39922 ft | 474 kts | 338° |
| 2026-04-23 15:53 | 32.08374 | 30.77206 | 39922 ft | 474 kts | 338° |
| 2026-04-23 15:53 | 32.14753 | 30.75186 | 39922 ft | 474 kts | 338° |
| 2026-04-23 15:54 | 32.21131 | 30.73163 | 39923 ft | 474 kts | 338° |
| 2026-04-23 15:54 | 32.27507 | 30.71139 | 39924 ft | 475 kts | 338° |
| 2026-04-23 15:55 | 32.33894 | 30.69107 | 39919 ft | 475 kts | 338° |
| 2026-04-23 15:55 | 32.40278 | 30.67075 | 39924 ft | 475 kts | 338° |
| 2026-04-23 15:56 | 32.46660 | 30.65039 | 39923 ft | 475 kts | 338° |
| 2026-04-23 15:56 | 32.53040 | 30.63002 | 39926 ft | 475 kts | 338° |
| 2026-04-23 15:57 | 32.59429 | 30.60958 | 39925 ft | 475 kts | 338° |
| 2026-04-23 15:57 | 32.65820 | 30.58911 | 39920 ft | 475 kts | 338° |
| 2026-04-23 15:58 | 32.72209 | 30.56861 | 39921 ft | 475 kts | 338° |
| 2026-04-23 15:58 | 32.78596 | 30.54809 | 39922 ft | 475 kts | 338° |
| 2026-04-23 15:59 | 32.84939 | 30.52768 | 39922 ft | 475 kts | 338° |
| 2026-04-23 15:59 | 32.91331 | 30.50708 | 39922 ft | 475 kts | 338° |
| 2026-04-23 16:00 | 32.97715 | 30.48648 | 39923 ft | 475 kts | 338° |
| 2026-04-23 16:00 | 33.04098 | 30.46585 | 39926 ft | 475 kts | 338° |
| 2026-04-23 16:01 | 33.10472 | 30.44522 | 39924 ft | 474 kts | 338° |
| 2026-04-23 16:01 | 33.16816 | 30.42465 | 39922 ft | 474 kts | 338° |
| 2026-04-23 16:02 | 33.23202 | 30.40392 | 39922 ft | 474 kts | 338° |
| 2026-04-23 16:02 | 33.29570 | 30.38321 | 39920 ft | 473 kts | 338° |
| 2026-04-23 16:03 | 33.35920 | 30.36253 | 39919 ft | 473 kts | 338° |
| 2026-04-23 16:03 | 33.42277 | 30.34179 | 39919 ft | 473 kts | 338° |
| 2026-04-23 16:04 | 33.48589 | 30.32117 | 39919 ft | 473 kts | 338° |
| 2026-04-23 16:04 | 33.54943 | 30.30038 | 39920 ft | 473 kts | 338° |
| 2026-04-23 16:05 | 33.60231 | 30.28306 | 39922 ft | 473 kts | 338° |
| 2026-04-23 16:05 | 33.67660 | 30.25869 | 39920 ft | 473 kts | 338° |
| 2026-04-23 16:06 | 33.74018 | 30.23779 | 39915 ft | 473 kts | 338° |
| 2026-04-23 16:06 | 33.80333 | 30.21701 | 39912 ft | 473 kts | 338° |
| 2026-04-23 16:07 | 33.86673 | 30.19610 | 39908 ft | 473 kts | 338° |
| 2026-04-23 16:07 | 33.93028 | 30.17512 | 39910 ft | 473 kts | 338° |
| 2026-04-23 16:08 | 33.99372 | 30.15415 | 39911 ft | 473 kts | 338° |
| 2026-04-23 16:08 | 34.05727 | 30.13310 | 39913 ft | 473 kts | 338° |
| 2026-04-23 16:09 | 34.12083 | 30.11201 | 39929 ft | 473 kts | 338° |
| 2026-04-23 16:09 | 34.18407 | 30.09100 | 39911 ft | 474 kts | 338° |
| 2026-04-23 16:10 | 34.24771 | 30.06983 | 39926 ft | 474 kts | 338° |
| 2026-04-23 16:10 | 34.31140 | 30.04861 | 39905 ft | 474 kts | 338° |
| 2026-04-23 16:11 | 34.37464 | 30.02749 | 39905 ft | 474 kts | 338° |
| 2026-04-23 16:11 | 34.43674 | 30.00195 | 39906 ft | 464 kts | 327° |
| 2026-04-23 16:12 | 34.48921 | 29.95904 | 39907 ft | 449 kts | 311° |
| 2026-04-23 16:12 | 34.53617 | 29.90881 | 39905 ft | 453 kts | 315° |
| 2026-04-23 16:13 | 34.58597 | 29.86167 | 39903 ft | 454 kts | 316° |
| 2026-04-23 16:13 | 34.66147 | 29.79198 | 39903 ft | 454 kts | 316° |
| 2026-04-23 16:14 | 34.71122 | 29.74574 | 39903 ft | 453 kts | 316° |
| 2026-04-23 16:14 | 34.76125 | 29.69899 | 39900 ft | 453 kts | 316° |
| 2026-04-23 16:15 | 34.81125 | 29.65215 | 39914 ft | 453 kts | 316° |
| 2026-04-23 16:15 | 34.86120 | 29.60530 | 39900 ft | 453 kts | 316° |
| 2026-04-23 16:16 | 34.91115 | 29.55838 | 39897 ft | 453 kts | 316° |
| 2026-04-23 16:16 | 34.96108 | 29.51141 | 39904 ft | 452 kts | 316° |
| 2026-04-23 16:17 | 35.01062 | 29.46472 | 39895 ft | 452 kts | 316° |
| 2026-04-23 16:17 | 35.06043 | 29.41772 | 39895 ft | 452 kts | 316° |
| 2026-04-23 16:18 | 35.11020 | 29.37067 | 39913 ft | 452 kts | 316° |
| 2026-04-23 16:18 | 35.15969 | 29.32381 | 39900 ft | 452 kts | 316° |
| 2026-04-23 16:19 | 35.20942 | 29.27665 | 39883 ft | 453 kts | 316° |
| 2026-04-23 16:19 | 35.25920 | 29.22938 | 39894 ft | 453 kts | 316° |
| 2026-04-23 16:20 | 35.30905 | 29.18195 | 39894 ft | 454 kts | 316° |
| 2026-04-23 16:20 | 35.35889 | 29.13446 | 39894 ft | 454 kts | 316° |
| 2026-04-23 16:21 | 35.40873 | 29.08691 | 39907 ft | 454 kts | 316° |
| 2026-04-23 16:21 | 35.45863 | 29.03920 | 39891 ft | 455 kts | 316° |
| 2026-04-23 16:22 | 35.50856 | 28.99140 | 39891 ft | 455 kts | 316° |
| 2026-04-23 16:22 | 35.55858 | 28.94343 | 39896 ft | 455 kts | 316° |
| 2026-04-23 16:23 | 35.60840 | 28.89558 | 39892 ft | 455 kts | 316° |
| 2026-04-23 16:23 | 35.65791 | 28.84795 | 39889 ft | 454 kts | 316° |
| 2026-04-23 16:24 | 35.70767 | 28.80000 | 39907 ft | 455 kts | 316° |
| 2026-04-23 16:24 | 35.75739 | 28.75201 | 39892 ft | 454 kts | 316° |
| 2026-04-23 16:25 | 35.80709 | 28.70396 | 39891 ft | 453 kts | 316° |
| 2026-04-23 16:25 | 35.85677 | 28.65584 | 39897 ft | 453 kts | 316° |
| 2026-04-23 16:26 | 35.90636 | 28.60774 | 39888 ft | 453 kts | 316° |
| 2026-04-23 16:26 | 35.95598 | 28.55953 | 39888 ft | 453 kts | 316° |
| 2026-04-23 16:27 | 36.00511 | 28.51171 | 39887 ft | 453 kts | 316° |
| 2026-04-23 16:27 | 36.05456 | 28.46352 | 39887 ft | 452 kts | 316° |
| 2026-04-23 16:28 | 36.10396 | 28.41530 | 39884 ft | 452 kts | 316° |
| 2026-04-23 16:28 | 36.15332 | 28.36702 | 39896 ft | 452 kts | 316° |
| 2026-04-23 16:29 | 36.20261 | 28.31874 | 39883 ft | 451 kts | 316° |
| 2026-04-23 16:29 | 36.25154 | 28.27073 | 39884 ft | 451 kts | 316° |
| 2026-04-23 16:30 | 36.30068 | 28.22243 | 39894 ft | 450 kts | 316° |
| 2026-04-23 16:30 | 36.34148 | 28.18228 | 39883 ft | 449 kts | 316° |
| 2026-04-23 16:31 | 36.39042 | 28.13402 | 39882 ft | 448 kts | 316° |
| 2026-04-23 16:31 | 36.43926 | 28.08578 | 39884 ft | 448 kts | 316° |
| 2026-04-23 16:32 | 36.48811 | 28.03746 | 39884 ft | 448 kts | 316° |
| 2026-04-23 16:32 | 36.53687 | 27.98915 | 39885 ft | 448 kts | 316° |
| 2026-04-23 16:33 | 36.58535 | 27.94105 | 39905 ft | 448 kts | 316° |
| 2026-04-23 16:33 | 36.63409 | 27.89259 | 39889 ft | 449 kts | 315° |
| 2026-04-23 16:34 | 36.68284 | 27.84406 | 39889 ft | 449 kts | 315° |
| 2026-04-23 16:34 | 36.73154 | 27.79549 | 39892 ft | 448 kts | 315° |
| 2026-04-23 16:35 | 36.78024 | 27.74683 | 39892 ft | 448 kts | 315° |
| 2026-04-23 16:35 | 36.82893 | 27.69811 | 39898 ft | 448 kts | 315° |
| 2026-04-23 16:36 | 36.87760 | 27.64932 | 39909 ft | 449 kts | 315° |
| 2026-04-23 16:36 | 36.92632 | 27.60040 | 39899 ft | 449 kts | 315° |
| 2026-04-23 16:37 | 36.97475 | 27.55169 | 39907 ft | 449 kts | 315° |
| 2026-04-23 16:37 | 37.02343 | 27.50265 | 39906 ft | 449 kts | 315° |
| 2026-04-23 16:38 | 37.07207 | 27.45355 | 39913 ft | 449 kts | 315° |
| 2026-04-23 16:38 | 37.12074 | 27.40435 | 39913 ft | 450 kts | 315° |
| 2026-04-23 16:39 | 37.16944 | 27.35504 | 39920 ft | 450 kts | 315° |
| 2026-04-23 16:39 | 37.21820 | 27.30558 | 39912 ft | 451 kts | 315° |
| 2026-04-23 16:40 | 37.26669 | 27.25632 | 39908 ft | 451 kts | 315° |
| 2026-04-23 16:40 | 37.31547 | 27.20667 | 39912 ft | 451 kts | 315° |
| 2026-04-23 16:41 | 37.36432 | 27.15687 | 39914 ft | 451 kts | 315° |
| 2026-04-23 16:41 | 37.41314 | 27.10700 | 39916 ft | 452 kts | 315° |
| 2026-04-23 16:42 | 37.46164 | 27.05738 | 39922 ft | 452 kts | 315° |
| 2026-04-23 16:42 | 37.51041 | 27.00740 | 39929 ft | 452 kts | 315° |
| 2026-04-23 16:43 | 37.55917 | 26.95734 | 39935 ft | 452 kts | 315° |
| 2026-04-23 16:43 | 37.60769 | 26.90744 | 39937 ft | 452 kts | 315° |
| 2026-04-23 16:44 | 37.65644 | 26.85721 | 39930 ft | 452 kts | 315° |
| 2026-04-23 16:44 | 37.70530 | 26.80678 | 39947 ft | 453 kts | 315° |
| 2026-04-23 16:45 | 37.75414 | 26.75628 | 39938 ft | 455 kts | 315° |
| 2026-04-23 16:45 | 37.80289 | 26.70576 | 39933 ft | 456 kts | 315° |
| 2026-04-23 16:46 | 37.85199 | 26.65483 | 39932 ft | 457 kts | 315° |
| 2026-04-23 16:46 | 37.90140 | 26.60350 | 39932 ft | 457 kts | 315° |
| 2026-04-23 16:47 | 37.95017 | 26.55272 | 39938 ft | 457 kts | 316° |
| 2026-04-23 16:47 | 37.99925 | 26.50152 | 39937 ft | 458 kts | 316° |
| 2026-04-23 16:48 | 38.04846 | 26.45009 | 39941 ft | 458 kts | 316° |
| 2026-04-23 16:48 | 38.09762 | 26.39863 | 39936 ft | 459 kts | 316° |
| 2026-04-23 16:49 | 38.14684 | 26.34701 | 39941 ft | 459 kts | 316° |
| 2026-04-23 16:49 | 38.19610 | 26.29526 | 39941 ft | 459 kts | 316° |
| 2026-04-23 16:50 | 38.24527 | 26.24350 | 39968 ft | 459 kts | 316° |
| 2026-04-23 16:50 | 38.29445 | 26.19165 | 39964 ft | 460 kts | 316° |
| 2026-04-23 16:51 | 38.34376 | 26.13954 | 39965 ft | 461 kts | 316° |
| 2026-04-23 16:51 | 38.39293 | 26.08750 | 39967 ft | 462 kts | 316° |
| 2026-04-23 16:52 | 38.44254 | 26.03490 | 39965 ft | 462 kts | 316° |
| 2026-04-23 16:52 | 38.49191 | 25.98247 | 39963 ft | 462 kts | 316° |
| 2026-04-23 16:53 | 38.54130 | 25.92994 | 39962 ft | 462 kts | 316° |
| 2026-04-23 16:53 | 38.59083 | 25.87713 | 39960 ft | 463 kts | 316° |
| 2026-04-23 16:54 | 38.64005 | 25.82453 | 39960 ft | 464 kts | 316° |
| 2026-04-23 16:54 | 38.68970 | 25.77139 | 39960 ft | 465 kts | 316° |
| 2026-04-23 16:55 | 38.73933 | 25.71819 | 39963 ft | 464 kts | 316° |
| 2026-04-23 16:55 | 38.78890 | 25.66495 | 39966 ft | 464 kts | 316° |
| 2026-04-23 16:56 | 38.83843 | 25.61163 | 39973 ft | 465 kts | 317° |
| 2026-04-23 16:56 | 38.88773 | 25.55847 | 39974 ft | 466 kts | 317° |
| 2026-04-23 16:57 | 38.93752 | 25.50469 | 39976 ft | 467 kts | 317° |
| 2026-04-23 16:57 | 38.98725 | 25.45088 | 39976 ft | 468 kts | 317° |
| 2026-04-23 16:58 | 39.03702 | 25.39692 | 39979 ft | 468 kts | 317° |
| 2026-04-23 16:58 | 39.08674 | 25.34290 | 39979 ft | 468 kts | 317° |
| 2026-04-23 16:59 | 39.13647 | 25.28876 | 39982 ft | 468 kts | 317° |
| 2026-04-23 16:59 | 39.18631 | 25.23440 | 39986 ft | 470 kts | 317° |
| 2026-04-23 17:00 | 39.23630 | 25.17977 | 39987 ft | 470 kts | 317° |
| 2026-04-23 17:00 | 39.28585 | 25.12553 | 39994 ft | 470 kts | 317° |
| 2026-04-23 17:01 | 39.33573 | 25.07083 | 39991 ft | 470 kts | 317° |
| 2026-04-23 17:01 | 39.38554 | 25.01608 | 39993 ft | 470 kts | 317° |
| 2026-04-23 17:02 | 39.43541 | 24.96115 | 39993 ft | 471 kts | 317° |
| 2026-04-23 17:02 | 39.48542 | 24.90597 | 39993 ft | 472 kts | 317° |
| 2026-04-23 17:03 | 39.53536 | 24.85078 | 39993 ft | 472 kts | 317° |
| 2026-04-23 17:03 | 39.58530 | 24.79546 | 39993 ft | 472 kts | 317° |
| 2026-04-23 17:04 | 39.63515 | 24.74013 | 39996 ft | 472 kts | 317° |
| 2026-04-23 17:04 | 39.68508 | 24.68461 | 39996 ft | 472 kts | 317° |
| 2026-04-23 17:05 | 39.73466 | 24.62936 | 39999 ft | 472 kts | 317° |
| 2026-04-23 17:05 | 39.78463 | 24.57357 | 39996 ft | 472 kts | 317° |
| 2026-04-23 17:06 | 39.83416 | 24.51817 | 39996 ft | 472 kts | 317° |
| 2026-04-23 17:06 | 39.88403 | 24.46227 | 39996 ft | 472 kts | 317° |
| 2026-04-23 17:07 | 39.93388 | 24.40629 | 39996 ft | 472 kts | 317° |
| 2026-04-23 17:07 | 39.98330 | 24.35065 | 39996 ft | 473 kts | 318° |
| 2026-04-23 17:08 | 40.03323 | 24.29435 | 39993 ft | 475 kts | 318° |
| 2026-04-23 17:08 | 40.08314 | 24.23797 | 39990 ft | 475 kts | 318° |
| 2026-04-23 17:09 | 40.13315 | 24.18136 | 39991 ft | 475 kts | 318° |
| 2026-04-23 17:09 | 40.18307 | 24.12473 | 39988 ft | 475 kts | 318° |
| 2026-04-23 17:10 | 40.23299 | 24.06798 | 39990 ft | 475 kts | 318° |
| 2026-04-23 17:10 | 40.28253 | 24.01154 | 39992 ft | 475 kts | 318° |
| 2026-04-23 17:11 | 40.33239 | 23.95464 | 39985 ft | 475 kts | 318° |
| 2026-04-23 17:11 | 40.38225 | 23.89762 | 39985 ft | 475 kts | 318° |
| 2026-04-23 17:12 | 40.43214 | 23.84044 | 39988 ft | 475 kts | 318° |
| 2026-04-23 17:12 | 40.48200 | 23.78318 | 39987 ft | 475 kts | 318° |
| 2026-04-23 17:13 | 40.53174 | 23.72593 | 39986 ft | 476 kts | 318° |
| 2026-04-23 17:13 | 40.58167 | 23.66836 | 39985 ft | 477 kts | 318° |
| 2026-04-23 17:14 | 40.63129 | 23.61104 | 39988 ft | 478 kts | 318° |
| 2026-04-23 17:14 | 40.67308 | 23.56265 | 39987 ft | 477 kts | 318° |
| 2026-04-23 17:15 | 40.73104 | 23.49542 | 39985 ft | 478 kts | 318° |
| 2026-04-23 17:15 | 40.77256 | 23.44715 | 39985 ft | 478 kts | 318° |
| 2026-04-23 17:16 | 40.82241 | 23.38908 | 39985 ft | 478 kts | 319° |
| 2026-04-23 17:16 | 40.87246 | 23.33068 | 39982 ft | 479 kts | 319° |
| 2026-04-23 17:17 | 40.92208 | 23.27264 | 39982 ft | 479 kts | 319° |
| 2026-04-23 17:17 | 40.97196 | 23.21418 | 39982 ft | 479 kts | 319° |
| 2026-04-23 17:18 | 41.04671 | 23.12634 | 39981 ft | 479 kts | 319° |
| 2026-04-23 17:19 | 41.09632 | 23.06789 | 39984 ft | 480 kts | 319° |
| 2026-04-23 17:19 | 41.14628 | 23.00890 | 39983 ft | 481 kts | 319° |
| 2026-04-23 17:20 | 41.19629 | 22.94973 | 39981 ft | 481 kts | 319° |
| 2026-04-23 17:21 | 41.29580 | 22.83161 | 39984 ft | 481 kts | 319° |
| 2026-04-23 17:21 | 41.37559 | 22.75098 | 39989 ft | 480 kts | 327° |
| 2026-04-23 17:22 | 41.45930 | 22.67747 | 39993 ft | 480 kts | 328° |
| 2026-04-23 17:23 | 41.54275 | 22.60441 | 39993 ft | 480 kts | 328° |
| 2026-04-23 17:24 | 41.62654 | 22.53054 | 39999 ft | 481 kts | 328° |
| 2026-04-23 17:24 | 41.71040 | 22.45632 | 39993 ft | 481 kts | 328° |
| 2026-04-23 17:25 | 41.79376 | 22.38231 | 40013 ft | 480 kts | 329° |
| 2026-04-23 17:26 | 41.90482 | 22.28337 | 40008 ft | 478 kts | 329° |
| 2026-04-23 17:27 | 41.98799 | 22.20900 | 40010 ft | 478 kts | 329° |
| 2026-04-23 17:27 | 42.04336 | 22.15934 | 40012 ft | 478 kts | 329° |
| 2026-04-23 17:28 | 42.09859 | 22.10972 | 40013 ft | 476 kts | 329° |
| 2026-04-23 17:28 | 42.15359 | 22.06019 | 40024 ft | 475 kts | 329° |
| 2026-04-23 17:29 | 42.20818 | 22.01093 | 40018 ft | 475 kts | 329° |
| 2026-04-23 17:30 | 42.29064 | 21.93632 | 40024 ft | 475 kts | 329° |
| 2026-04-23 17:30 | 42.37274 | 21.86179 | 40033 ft | 473 kts | 329° |
| 2026-04-23 17:31 | 42.42741 | 21.81205 | 40032 ft | 473 kts | 329° |
| 2026-04-23 17:31 | 42.48179 | 21.76245 | 40035 ft | 473 kts | 329° |
| 2026-04-23 17:32 | 42.53634 | 21.71259 | 40036 ft | 472 kts | 329° |
| 2026-04-23 17:32 | 42.59082 | 21.66268 | 40037 ft | 471 kts | 329° |
| 2026-04-23 17:33 | 42.64474 | 21.61320 | 40040 ft | 470 kts | 329° |
| 2026-04-23 17:33 | 42.69903 | 21.56326 | 40040 ft | 470 kts | 329° |
| 2026-04-23 17:34 | 42.75331 | 21.51322 | 40043 ft | 471 kts | 329° |
| 2026-04-23 17:35 | 42.83429 | 21.43838 | 40042 ft | 471 kts | 329° |
| 2026-04-23 17:35 | 42.91557 | 21.36300 | 40043 ft | 471 kts | 329° |
| 2026-04-23 17:36 | 42.96972 | 21.31266 | 40042 ft | 471 kts | 329° |
| 2026-04-23 17:36 | 43.02375 | 21.26231 | 40037 ft | 469 kts | 329° |
| 2026-04-23 17:37 | 43.07771 | 21.21192 | 40038 ft | 468 kts | 329° |
| 2026-04-23 17:38 | 43.15820 | 21.13654 | 40045 ft | 468 kts | 329° |
| 2026-04-23 17:38 | 43.21208 | 21.08596 | 40056 ft | 469 kts | 329° |
| 2026-04-23 17:39 | 43.26552 | 21.03567 | 40050 ft | 468 kts | 329° |
| 2026-04-23 17:39 | 43.31924 | 20.98501 | 40044 ft | 467 kts | 329° |
| 2026-04-23 17:40 | 43.37284 | 20.93435 | 40057 ft | 467 kts | 329° |
| 2026-04-23 17:40 | 43.42506 | 20.88092 | 40062 ft | 470 kts | 321° |
| 2026-04-23 17:41 | 43.47310 | 20.81970 | 40060 ft | 471 kts | 320° |
| 2026-04-23 17:41 | 43.54402 | 20.72574 | 40067 ft | 471 kts | 319° |
| 2026-04-23 17:42 | 43.61463 | 20.63182 | 40070 ft | 471 kts | 320° |
| 2026-04-23 17:43 | 43.66184 | 20.56902 | 40052 ft | 471 kts | 320° |
| 2026-04-23 17:43 | 43.70900 | 20.50617 | 40035 ft | 471 kts | 319° |
| 2026-04-23 17:44 | 43.75590 | 20.44352 | 40049 ft | 470 kts | 319° |
| 2026-04-23 17:44 | 43.82641 | 20.34905 | 40053 ft | 470 kts | 319° |
| 2026-04-23 17:45 | 43.89677 | 20.25446 | 40047 ft | 470 kts | 319° |
| 2026-04-23 17:46 | 43.96675 | 20.16006 | 40060 ft | 469 kts | 319° |
| 2026-04-23 17:46 | 44.01351 | 20.09679 | 40065 ft | 469 kts | 319° |
| 2026-04-23 17:47 | 44.06033 | 20.03329 | 40065 ft | 469 kts | 319° |
| 2026-04-23 17:48 | 44.13043 | 19.93796 | 40078 ft | 469 kts | 319° |
| 2026-04-23 17:48 | 44.17672 | 19.87482 | 40053 ft | 469 kts | 319° |
| 2026-04-23 17:49 | 44.22329 | 19.81114 | 40071 ft | 469 kts | 319° |
| 2026-04-23 17:49 | 44.26999 | 19.74714 | 40060 ft | 468 kts | 319° |
| 2026-04-23 17:50 | 44.31638 | 19.68340 | 40062 ft | 468 kts | 319° |
| 2026-04-23 17:50 | 44.38592 | 19.58758 | 40056 ft | 468 kts | 319° |
| 2026-04-23 17:51 | 44.43200 | 19.52390 | 40058 ft | 468 kts | 319° |
| 2026-04-23 17:52 | 44.50143 | 19.42770 | 40057 ft | 469 kts | 318° |
| 2026-04-23 17:52 | 44.57096 | 19.33100 | 40058 ft | 469 kts | 318° |
| 2026-04-23 17:53 | 44.64031 | 19.23419 | 40058 ft | 469 kts | 318° |
| 2026-04-23 17:54 | 44.68656 | 19.16945 | 40061 ft | 469 kts | 318° |
| 2026-04-23 17:54 | 44.75603 | 19.07191 | 40059 ft | 470 kts | 318° |
| 2026-04-23 17:55 | 44.82507 | 18.97461 | 40061 ft | 469 kts | 318° |
| 2026-04-23 17:56 | 44.87120 | 18.90940 | 40059 ft | 469 kts | 318° |
| 2026-04-23 17:56 | 44.94034 | 18.81140 | 40059 ft | 469 kts | 318° |
| 2026-04-23 17:57 | 44.98637 | 18.74594 | 40065 ft | 469 kts | 317° |
| 2026-04-23 17:58 | 45.05494 | 18.64768 | 40065 ft | 470 kts | 317° |
| 2026-04-23 17:58 | 45.10062 | 18.58142 | 40064 ft | 470 kts | 317° |
| 2026-04-23 17:59 | 45.14628 | 18.51511 | 40064 ft | 470 kts | 317° |
| 2026-04-23 17:59 | 45.19200 | 18.44867 | 40069 ft | 470 kts | 317° |
| 2026-04-23 18:00 | 45.23770 | 18.38212 | 40061 ft | 471 kts | 317° |
| 2026-04-23 18:00 | 45.28343 | 18.31539 | 40072 ft | 471 kts | 317° |
| 2026-04-23 18:01 | 45.32891 | 18.24883 | 40071 ft | 472 kts | 317° |
| 2026-04-23 18:01 | 45.37453 | 18.18188 | 40067 ft | 472 kts | 317° |
| 2026-04-23 18:02 | 45.41255 | 18.12598 | 40056 ft | 472 kts | 317° |
| 2026-04-23 18:02 | 45.45819 | 18.05873 | 40072 ft | 472 kts | 316° |
| 2026-04-23 18:03 | 45.50385 | 17.99126 | 40075 ft | 473 kts | 316° |
| 2026-04-23 18:03 | 45.54922 | 17.92406 | 40080 ft | 473 kts | 316° |
| 2026-04-23 18:04 | 45.59483 | 17.85635 | 40075 ft | 473 kts | 316° |
| 2026-04-23 18:04 | 45.64050 | 17.78836 | 40073 ft | 474 kts | 316° |
| 2026-04-23 18:05 | 45.68621 | 17.72016 | 40072 ft | 475 kts | 316° |
| 2026-04-23 18:05 | 45.73189 | 17.65182 | 40080 ft | 475 kts | 316° |
| 2026-04-23 18:06 | 45.77748 | 17.58344 | 40069 ft | 475 kts | 316° |
| 2026-04-23 18:06 | 45.82309 | 17.51487 | 40082 ft | 475 kts | 316° |
| 2026-04-23 18:07 | 45.86864 | 17.44620 | 40078 ft | 475 kts | 316° |
| 2026-04-23 18:07 | 45.91417 | 17.37738 | 40075 ft | 475 kts | 316° |
| 2026-04-23 18:08 | 45.95968 | 17.30843 | 40075 ft | 475 kts | 316° |
| 2026-04-23 18:08 | 46.00488 | 17.23977 | 40067 ft | 475 kts | 316° |
| 2026-04-23 18:09 | 46.05034 | 17.17054 | 40073 ft | 475 kts | 316° |
| 2026-04-23 18:09 | 46.09572 | 17.10126 | 40081 ft | 475 kts | 316° |
| 2026-04-23 18:10 | 46.14105 | 17.03184 | 40072 ft | 474 kts | 316° |
| 2026-04-23 18:10 | 46.18619 | 16.96258 | 40059 ft | 474 kts | 316° |
| 2026-04-23 18:11 | 46.23132 | 16.89314 | 40075 ft | 473 kts | 316° |
| 2026-04-23 18:11 | 46.27608 | 16.82410 | 40072 ft | 473 kts | 316° |
| 2026-04-23 18:12 | 46.32110 | 16.75447 | 40076 ft | 473 kts | 316° |
| 2026-04-23 18:12 | 46.36612 | 16.68467 | 40075 ft | 473 kts | 316° |
| 2026-04-23 18:13 | 46.41101 | 16.61489 | 40069 ft | 474 kts | 316° |
| 2026-04-23 18:13 | 46.45598 | 16.54481 | 40073 ft | 474 kts | 316° |
| 2026-04-23 18:14 | 46.50060 | 16.47509 | 40084 ft | 474 kts | 316° |
| 2026-04-23 18:14 | 46.54549 | 16.40475 | 40090 ft | 474 kts | 316° |
| 2026-04-23 18:15 | 46.59041 | 16.33419 | 40075 ft | 474 kts | 316° |
| 2026-04-23 18:15 | 46.63495 | 16.26403 | 40082 ft | 475 kts | 316° |
| 2026-04-23 18:16 | 46.67985 | 16.19315 | 40084 ft | 477 kts | 316° |
| 2026-04-23 18:16 | 46.72480 | 16.12200 | 40086 ft | 477 kts | 316° |
| 2026-04-23 18:17 | 46.79225 | 16.01483 | 40090 ft | 478 kts | 316° |
| 2026-04-23 18:17 | 46.83736 | 15.94356 | 40092 ft | 477 kts | 316° |
| 2026-04-23 18:18 | 46.88295 | 15.87294 | 40096 ft | 477 kts | 316° |
| 2026-04-23 18:18 | 46.92844 | 15.80237 | 40102 ft | 477 kts | 317° |
| 2026-04-23 18:19 | 46.97358 | 15.73192 | 40089 ft | 477 kts | 316° |
| 2026-04-23 18:19 | 47.01890 | 15.66088 | 40105 ft | 477 kts | 316° |
| 2026-04-23 18:20 | 47.06416 | 15.58971 | 40104 ft | 477 kts | 316° |
| 2026-04-23 18:20 | 47.10942 | 15.51837 | 40101 ft | 478 kts | 316° |
| 2026-04-23 18:21 | 47.15470 | 15.44682 | 40108 ft | 477 kts | 316° |
| 2026-04-23 18:21 | 47.19993 | 15.37513 | 40111 ft | 477 kts | 317° |
| 2026-04-23 18:22 | 47.24493 | 15.30362 | 40123 ft | 475 kts | 317° |
| 2026-04-23 18:22 | 47.28955 | 15.23254 | 40128 ft | 475 kts | 317° |
| 2026-04-23 18:23 | 47.35690 | 15.12487 | 40131 ft | 475 kts | 317° |
| 2026-04-23 18:24 | 47.42410 | 15.01701 | 40148 ft | 475 kts | 317° |
| 2026-04-23 18:25 | 47.49110 | 14.90905 | 40157 ft | 475 kts | 317° |
| 2026-04-23 18:25 | 47.53574 | 14.83686 | 40177 ft | 475 kts | 317° |
| 2026-04-23 18:26 | 47.58004 | 14.76505 | 40181 ft | 476 kts | 317° |
| 2026-04-23 18:26 | 47.62484 | 14.69221 | 40198 ft | 477 kts | 317° |
| 2026-04-23 18:27 | 47.66950 | 14.61939 | 40195 ft | 477 kts | 317° |
| 2026-04-23 18:27 | 47.71383 | 14.54690 | 40205 ft | 477 kts | 317° |
| 2026-04-23 18:28 | 47.75846 | 14.47371 | 40195 ft | 477 kts | 317° |
| 2026-04-23 18:28 | 47.80304 | 14.40046 | 40200 ft | 478 kts | 317° |
| 2026-04-23 18:29 | 47.84773 | 14.32689 | 40202 ft | 479 kts | 317° |
| 2026-04-23 18:29 | 47.89215 | 14.25346 | 40205 ft | 479 kts | 316° |
| 2026-04-23 18:30 | 47.93673 | 14.17953 | 40203 ft | 479 kts | 316° |
| 2026-04-23 18:30 | 47.98124 | 14.10554 | 40184 ft | 479 kts | 316° |
| 2026-04-23 18:31 | 48.02582 | 14.03124 | 40204 ft | 480 kts | 316° |
| 2026-04-23 18:31 | 48.07008 | 13.95726 | 40198 ft | 480 kts | 316° |
| 2026-04-23 18:32 | 48.11452 | 13.88275 | 40203 ft | 480 kts | 316° |
| 2026-04-23 18:32 | 48.15892 | 13.80813 | 40203 ft | 480 kts | 316° |
| 2026-04-23 18:33 | 48.20333 | 13.73328 | 40203 ft | 481 kts | 316° |
| 2026-04-23 18:33 | 48.24771 | 13.65826 | 40205 ft | 481 kts | 316° |
| 2026-04-23 18:34 | 48.29212 | 13.58297 | 40208 ft | 481 kts | 316° |
| 2026-04-23 18:34 | 48.33645 | 13.50759 | 40215 ft | 481 kts | 316° |
| 2026-04-23 18:35 | 48.38067 | 13.43221 | 40198 ft | 480 kts | 316° |
| 2026-04-23 18:35 | 48.42466 | 13.35701 | 40216 ft | 481 kts | 316° |
| 2026-04-23 18:36 | 48.46974 | 13.28257 | 40217 ft | 479 kts | 319° |
| 2026-04-23 18:36 | 48.51698 | 13.21176 | 40219 ft | 479 kts | 320° |
| 2026-04-23 18:37 | 48.56436 | 13.14093 | 40218 ft | 479 kts | 320° |
| 2026-04-23 18:37 | 48.61128 | 13.06950 | 40215 ft | 479 kts | 319° |
| 2026-04-23 18:38 | 48.65809 | 12.99747 | 40219 ft | 480 kts | 319° |
| 2026-04-23 18:38 | 48.70483 | 12.92522 | 40220 ft | 480 kts | 319° |
| 2026-04-23 18:39 | 48.75153 | 12.85286 | 40223 ft | 480 kts | 319° |
| 2026-04-23 18:39 | 48.79817 | 12.78043 | 40234 ft | 480 kts | 319° |
| 2026-04-23 18:40 | 48.84449 | 12.70830 | 40224 ft | 479 kts | 319° |
| 2026-04-23 18:40 | 48.89094 | 12.63577 | 40236 ft | 478 kts | 319° |
| 2026-04-23 18:41 | 48.93726 | 12.56323 | 40226 ft | 478 kts | 319° |
| 2026-04-23 18:41 | 48.98332 | 12.49092 | 40237 ft | 478 kts | 319° |
| 2026-04-23 18:42 | 49.02951 | 12.41816 | 40239 ft | 478 kts | 319° |
| 2026-04-23 18:42 | 49.07582 | 12.34505 | 40236 ft | 479 kts | 318° |
| 2026-04-23 18:43 | 49.12206 | 12.27182 | 40239 ft | 478 kts | 318° |
| 2026-04-23 18:43 | 49.16817 | 12.19855 | 40230 ft | 478 kts | 318° |
| 2026-04-23 18:44 | 49.21419 | 12.12524 | 40241 ft | 478 kts | 318° |
| 2026-04-23 18:44 | 49.26016 | 12.05181 | 40233 ft | 478 kts | 318° |
| 2026-04-23 18:45 | 49.30588 | 11.97856 | 40249 ft | 479 kts | 318° |
| 2026-04-23 18:45 | 49.35196 | 11.90452 | 40247 ft | 479 kts | 317° |
| 2026-04-23 18:46 | 49.39793 | 11.83043 | 40237 ft | 479 kts | 317° |
| 2026-04-23 18:46 | 49.44380 | 11.75629 | 40229 ft | 478 kts | 317° |
| 2026-04-23 18:47 | 49.48970 | 11.68190 | 40216 ft | 478 kts | 317° |
| 2026-04-23 18:47 | 49.52786 | 11.61992 | 40226 ft | 479 kts | 317° |
| 2026-04-23 18:48 | 49.58117 | 11.53303 | 40230 ft | 480 kts | 317° |
| 2026-04-23 18:48 | 49.61954 | 11.47028 | 40236 ft | 480 kts | 317° |
| 2026-04-23 18:49 | 49.66531 | 11.39526 | 40248 ft | 479 kts | 317° |
| 2026-04-23 18:49 | 49.71059 | 11.32082 | 40242 ft | 478 kts | 317° |
| 2026-04-23 18:50 | 49.74853 | 11.25829 | 40251 ft | 479 kts | 317° |
| 2026-04-23 18:50 | 49.80216 | 11.17036 | 40247 ft | 480 kts | 317° |
| 2026-04-23 18:51 | 49.84855 | 11.09610 | 40254 ft | 480 kts | 317° |
| 2026-04-23 18:51 | 49.89470 | 11.02220 | 40255 ft | 480 kts | 317° |
| 2026-04-23 18:52 | 49.94108 | 10.94741 | 40253 ft | 479 kts | 317° |
| 2026-04-23 18:52 | 49.98719 | 10.87254 | 40262 ft | 480 kts | 317° |
| 2026-04-23 18:53 | 50.03307 | 10.79782 | 40263 ft | 480 kts | 317° |
| 2026-04-23 18:53 | 50.07925 | 10.72244 | 40262 ft | 480 kts | 317° |
| 2026-04-23 18:54 | 50.12534 | 10.64715 | 40266 ft | 480 kts | 317° |
| 2026-04-23 18:54 | 50.17145 | 10.57151 | 40258 ft | 480 kts | 316° |
| 2026-04-23 18:55 | 50.21748 | 10.49565 | 40273 ft | 481 kts | 316° |
| 2026-04-23 18:55 | 50.26383 | 10.42020 | 40276 ft | 481 kts | 317° |
| 2026-04-23 18:56 | 50.30270 | 10.35790 | 40278 ft | 481 kts | 317° |
| 2026-04-23 18:56 | 50.35700 | 10.27063 | 40278 ft | 481 kts | 317° |
| 2026-04-23 18:57 | 50.40155 | 10.19175 | 40279 ft | 482 kts | 314° |
| 2026-04-23 18:57 | 50.44727 | 10.11545 | 40285 ft | 484 kts | 316° |
| 2026-04-23 18:58 | 50.49332 | 10.03845 | 40292 ft | 483 kts | 315° |
| 2026-04-23 18:58 | 50.53865 | 9.96074 | 40293 ft | 482 kts | 315° |
| 2026-04-23 18:59 | 50.58273 | 9.88117 | 40297 ft | 483 kts | 311° |
| 2026-04-23 18:59 | 50.62507 | 9.79900 | 40309 ft | 483 kts | 311° |
| 2026-04-23 19:00 | 50.66761 | 9.71657 | 40314 ft | 485 kts | 311° |
| 2026-04-23 19:00 | 50.71052 | 9.63417 | 40296 ft | 486 kts | 311° |
| 2026-04-23 19:01 | 50.75333 | 9.55243 | 40299 ft | 486 kts | 311° |
| 2026-04-23 19:01 | 50.79634 | 9.47009 | 40298 ft | 486 kts | 311° |
| 2026-04-23 19:02 | 50.83930 | 9.38743 | 40310 ft | 486 kts | 311° |
| 2026-04-23 19:02 | 50.88201 | 9.30501 | 40291 ft | 487 kts | 311° |
| 2026-04-23 19:03 | 50.92531 | 9.22119 | 40284 ft | 488 kts | 311° |
| 2026-04-23 19:03 | 50.96799 | 9.13830 | 40281 ft | 488 kts | 311° |
| 2026-04-23 19:04 | 51.01083 | 9.05486 | 40277 ft | 487 kts | 311° |
| 2026-04-23 19:04 | 51.05365 | 8.97119 | 40280 ft | 487 kts | 310° |
| 2026-04-23 19:05 | 51.09628 | 8.88761 | 40294 ft | 487 kts | 310° |
| 2026-04-23 19:05 | 51.13877 | 8.80406 | 40301 ft | 487 kts | 310° |
| 2026-04-23 19:06 | 51.18139 | 8.72006 | 40309 ft | 487 kts | 310° |
| 2026-04-23 19:06 | 51.22361 | 8.63629 | 40306 ft | 487 kts | 310° |
| 2026-04-23 19:07 | 51.26608 | 8.55180 | 40309 ft | 487 kts | 310° |
| 2026-04-23 19:07 | 51.30858 | 8.46709 | 40316 ft | 489 kts | 310° |
| 2026-04-23 19:08 | 51.35118 | 8.38205 | 40318 ft | 489 kts | 310° |
| 2026-04-23 19:08 | 51.39368 | 8.29768 | 40317 ft | 489 kts | 310° |
| 2026-04-23 19:09 | 51.43656 | 8.21225 | 40330 ft | 491 kts | 310° |
| 2026-04-23 19:09 | 51.47915 | 8.12726 | 40320 ft | 485 kts | 310° |
| 2026-04-23 19:10 | 51.51902 | 8.03972 | 40325 ft | 487 kts | 303° |
| 2026-04-23 19:10 | 51.55411 | 7.94719 | 40319 ft | 488 kts | 301° |
| 2026-04-23 19:11 | 51.58817 | 7.85297 | 40320 ft | 487 kts | 301° |
| 2026-04-23 19:11 | 51.62208 | 7.75871 | 40322 ft | 487 kts | 301° |
| 2026-04-23 19:12 | 51.65036 | 7.68031 | 40321 ft | 487 kts | 301° |
| 2026-04-23 19:12 | 51.69028 | 7.56959 | 40322 ft | 488 kts | 301° |
| 2026-04-23 19:13 | 51.72428 | 7.47497 | 40329 ft | 488 kts | 300° |
| 2026-04-23 19:13 | 51.75802 | 7.38070 | 40338 ft | 488 kts | 300° |
| 2026-04-23 19:14 | 51.79183 | 7.28584 | 40335 ft | 488 kts | 300° |
| 2026-04-23 19:14 | 51.82569 | 7.19051 | 40346 ft | 489 kts | 300° |
| 2026-04-23 19:15 | 51.85956 | 7.09479 | 40347 ft | 489 kts | 300° |
| 2026-04-23 19:15 | 51.89342 | 6.99873 | 40353 ft | 491 kts | 300° |
| 2026-04-23 19:16 | 51.92694 | 6.90325 | 40356 ft | 491 kts | 300° |
| 2026-04-23 19:16 | 51.96061 | 6.80697 | 40355 ft | 489 kts | 299° |
| 2026-04-23 19:17 | 52.01099 | 6.66226 | 40356 ft | 491 kts | 299° |
| 2026-04-23 19:17 | 52.04447 | 6.56560 | 40358 ft | 490 kts | 299° |
| 2026-04-23 19:18 | 52.07763 | 6.46952 | 40365 ft | 491 kts | 299° |
| 2026-04-23 19:18 | 52.11097 | 6.37254 | 40366 ft | 491 kts | 298° |
| 2026-04-23 19:19 | 52.16078 | 6.22694 | 40372 ft | 490 kts | 298° |
| 2026-04-23 19:20 | 52.21022 | 6.08158 | 40374 ft | 490 kts | 298° |
| 2026-04-23 19:20 | 52.24320 | 5.98413 | 40375 ft | 490 kts | 298° |
| 2026-04-23 19:21 | 52.29244 | 5.83796 | 40379 ft | 490 kts | 297° |
| 2026-04-23 19:22 | 52.32517 | 5.74028 | 40383 ft | 490 kts | 297° |
| 2026-04-23 19:22 | 52.37392 | 5.59409 | 40400 ft | 490 kts | 297° |
| 2026-04-23 19:23 | 52.40647 | 5.49603 | 40399 ft | 490 kts | 297° |
| 2026-04-23 19:24 | 52.45504 | 5.34895 | 40401 ft | 491 kts | 297° |
| 2026-04-23 19:24 | 52.50371 | 5.20068 | 40402 ft | 491 kts | 297° |
| 2026-04-23 19:25 | 52.56819 | 5.00283 | 40406 ft | 491 kts | 296° |
| 2026-04-23 19:26 | 52.61614 | 4.85471 | 40406 ft | 491 kts | 296° |
| 2026-04-23 19:27 | 52.69601 | 4.60591 | 40411 ft | 490 kts | 296° |
| 2026-04-23 19:28 | 52.75923 | 4.40718 | 40418 ft | 490 kts | 296° |
| 2026-04-23 19:29 | 52.80654 | 4.25740 | 40417 ft | 490 kts | 296° |
| 2026-04-23 19:30 | 52.85348 | 4.10784 | 40426 ft | 490 kts | 295° |
| 2026-04-23 19:31 | 52.90048 | 3.95720 | 40425 ft | 490 kts | 295° |
| 2026-04-23 19:31 | 52.93149 | 3.85725 | 40427 ft | 490 kts | 295° |
| 2026-04-23 19:32 | 52.96265 | 3.75645 | 40431 ft | 490 kts | 295° |
| 2026-04-23 19:32 | 52.99365 | 3.65576 | 40431 ft | 489 kts | 295° |
| 2026-04-23 19:33 | 53.01929 | 3.57210 | 40432 ft | 489 kts | 295° |
| 2026-04-23 19:33 | 53.07047 | 3.40433 | 40418 ft | 490 kts | 294° |
| 2026-04-23 19:34 | 53.09516 | 3.31862 | 40418 ft | 488 kts | 289° |
| 2026-04-23 19:35 | 53.12106 | 3.15648 | 40418 ft | 485 kts | 280° |
| 2026-04-23 19:35 | 53.13546 | 3.04677 | 40447 ft | 485 kts | 279° |
| 2026-04-23 19:36 | 53.14965 | 2.93685 | 40442 ft | 485 kts | 279° |
| 2026-04-23 19:36 | 53.16386 | 2.82705 | 40440 ft | 485 kts | 279° |
| 2026-04-23 19:37 | 53.17803 | 2.71730 | 40443 ft | 485 kts | 279° |
| 2026-04-23 19:37 | 53.19213 | 2.60741 | 40446 ft | 485 kts | 279° |
| 2026-04-23 19:38 | 53.21035 | 2.49978 | 40435 ft | 489 kts | 291° |
| 2026-04-23 19:38 | 53.24333 | 2.40015 | 40438 ft | 492 kts | 299° |
| 2026-04-23 19:39 | 53.27989 | 2.30345 | 40435 ft | 492 kts | 300° |
| 2026-04-23 19:39 | 53.31681 | 2.20715 | 40457 ft | 492 kts | 300° |
| 2026-04-23 19:40 | 53.35354 | 2.11032 | 40460 ft | 492 kts | 300° |
| 2026-04-23 19:40 | 53.39000 | 2.01330 | 40459 ft | 492 kts | 300° |
| 2026-04-23 19:41 | 53.42622 | 1.91639 | 40462 ft | 493 kts | 300° |
| 2026-04-23 19:41 | 53.46258 | 1.81873 | 40462 ft | 493 kts | 300° |
| 2026-04-23 19:42 | 53.49883 | 1.72103 | 40465 ft | 493 kts | 300° |
| 2026-04-23 19:42 | 53.53495 | 1.62328 | 40468 ft | 493 kts | 300° |
| 2026-04-23 19:43 | 53.57111 | 1.52505 | 40470 ft | 493 kts | 300° |
| 2026-04-23 19:43 | 53.60715 | 1.42675 | 40468 ft | 494 kts | 300° |
| 2026-04-23 19:44 | 53.64304 | 1.32851 | 40468 ft | 494 kts | 300° |
| 2026-04-23 19:44 | 53.67897 | 1.22975 | 40470 ft | 494 kts | 300° |
| 2026-04-23 19:45 | 53.71462 | 1.13138 | 40470 ft | 494 kts | 299° |
| 2026-04-23 19:45 | 53.75037 | 1.03233 | 40485 ft | 493 kts | 300° |
| 2026-04-23 19:46 | 53.78599 | 0.93321 | 40469 ft | 493 kts | 300° |
| 2026-04-23 19:46 | 53.82162 | 0.83370 | 40473 ft | 493 kts | 299° |
| 2026-04-23 19:47 | 53.85709 | 0.73426 | 40474 ft | 493 kts | 299° |
| 2026-04-23 19:47 | 53.89226 | 0.63523 | 40473 ft | 493 kts | 299° |
| 2026-04-23 19:48 | 53.92752 | 0.53557 | 40479 ft | 493 kts | 299° |
| 2026-04-23 19:48 | 53.96273 | 0.43565 | 40478 ft | 493 kts | 299° |
| 2026-04-23 19:49 | 53.99784 | 0.33559 | 40479 ft | 493 kts | 299° |
| 2026-04-23 19:49 | 54.03494 | 0.23783 | 40481 ft | 493 kts | 308° |
| 2026-04-23 19:50 | 54.07982 | 0.14909 | 40479 ft | 494 kts | 310° |
| 2026-04-23 19:50 | 54.12519 | 0.06105 | 40482 ft | 494 kts | 310° |
| 2026-04-23 19:51 | 54.17033 | -0.02658 | 40484 ft | 493 kts | 310° |
| 2026-04-23 19:51 | 54.21549 | -0.11450 | 40484 ft | 490 kts | 310° |
| 2026-04-23 19:52 | 54.26032 | -0.20207 | 40483 ft | 489 kts | 310° |
| 2026-04-23 19:52 | 54.30517 | -0.28998 | 40484 ft | 489 kts | 310° |
| 2026-04-23 19:53 | 54.34954 | -0.37726 | 40484 ft | 489 kts | 310° |
| 2026-04-23 19:53 | 54.39419 | -0.46541 | 40484 ft | 489 kts | 310° |
| 2026-04-23 19:54 | 54.43869 | -0.55358 | 40472 ft | 489 kts | 310° |
| 2026-04-23 19:54 | 54.46095 | -0.59781 | 40247 ft | 488 kts | 310° |
| 2026-04-23 19:54 | 54.48317 | -0.64204 | 40007 ft | 489 kts | 310° |
| 2026-04-23 19:54 | 54.50540 | -0.68636 | 39777 ft | 489 kts | 310° |
| 2026-04-23 19:55 | 54.52765 | -0.73081 | 39509 ft | 489 kts | 309° |
| 2026-04-23 19:55 | 54.54979 | -0.77512 | 39125 ft | 489 kts | 309° |
| 2026-04-23 19:55 | 54.57202 | -0.81967 | 38595 ft | 489 kts | 309° |
| 2026-04-23 19:55 | 54.59417 | -0.86416 | 38102 ft | 491 kts | 309° |
| 2026-04-23 19:56 | 54.61648 | -0.90905 | 37613 ft | 493 kts | 309° |
| 2026-04-23 19:56 | 54.63880 | -0.95406 | 37131 ft | 494 kts | 309° |
| 2026-04-23 19:56 | 54.66119 | -0.99928 | 36675 ft | 496 kts | 308° |
| 2026-04-23 19:56 | 54.68362 | -1.04466 | 36206 ft | 498 kts | 308° |
| 2026-04-23 19:57 | 54.70594 | -1.08990 | 35774 ft | 499 kts | 309° |
| 2026-04-23 19:57 | 54.72844 | -1.13560 | 35323 ft | 497 kts | 309° |
| 2026-04-23 19:57 | 54.75080 | -1.18110 | 34884 ft | 494 kts | 309° |
| 2026-04-23 19:57 | 54.77301 | -1.22637 | 34384 ft | 489 kts | 309° |
| 2026-04-23 19:58 | 54.79489 | -1.27105 | 33863 ft | 484 kts | 309° |
| 2026-04-23 19:58 | 54.81634 | -1.31494 | 33325 ft | 480 kts | 309° |
| 2026-04-23 19:58 | 54.83783 | -1.35900 | 32800 ft | 475 kts | 309° |
| 2026-04-23 19:58 | 54.85911 | -1.40270 | 32285 ft | 471 kts | 309° |
| 2026-04-23 19:59 | 54.88012 | -1.44593 | 31778 ft | 466 kts | 309° |
| 2026-04-23 19:59 | 54.90092 | -1.48879 | 31284 ft | 462 kts | 309° |
| 2026-04-23 19:59 | 54.92158 | -1.53145 | 30798 ft | 458 kts | 310° |
| 2026-04-23 19:59 | 54.94174 | -1.57316 | 30278 ft | 454 kts | 310° |
| 2026-04-23 20:00 | 54.96197 | -1.61507 | 29706 ft | 449 kts | 310° |
| 2026-04-23 20:00 | 54.98194 | -1.65657 | 29132 ft | 445 kts | 312° |
| 2026-04-23 20:00 | 55.00171 | -1.69767 | 28602 ft | 440 kts | 312° |
| 2026-04-23 20:00 | 55.02124 | -1.73832 | 28049 ft | 435 kts | 312° |
| 2026-04-23 20:01 | 55.04054 | -1.77857 | 27540 ft | 431 kts | 312° |
| 2026-04-23 20:01 | 55.05964 | -1.81845 | 27028 ft | 426 kts | 312° |
| 2026-04-23 20:01 | 55.07855 | -1.85803 | 26526 ft | 422 kts | 311° |
| 2026-04-23 20:01 | 55.09721 | -1.89713 | 26061 ft | 418 kts | 311° |
| 2026-04-23 20:02 | 55.11558 | -1.93610 | 25668 ft | 414 kts | 310° |
| 2026-04-23 20:02 | 55.13160 | -1.97793 | 25301 ft | 415 kts | 303° |
| 2026-04-23 20:02 | 55.14612 | -2.02145 | 24938 ft | 414 kts | 302° |
| 2026-04-23 20:02 | 55.16042 | -2.06505 | 24577 ft | 413 kts | 302° |
| 2026-04-23 20:03 | 55.17467 | -2.10855 | 24224 ft | 411 kts | 302° |
| 2026-04-23 20:03 | 55.18887 | -2.15190 | 23846 ft | 410 kts | 302° |
| 2026-04-23 20:03 | 55.20304 | -2.19516 | 23421 ft | 408 kts | 301° |
| 2026-04-23 20:03 | 55.21706 | -2.23802 | 23071 ft | 406 kts | 301° |
| 2026-04-23 20:04 | 55.23108 | -2.28092 | 22617 ft | 403 kts | 301° |
| 2026-04-23 20:04 | 55.24498 | -2.32350 | 22216 ft | 401 kts | 300° |
| 2026-04-23 20:04 | 55.25875 | -2.36579 | 21827 ft | 398 kts | 300° |
| 2026-04-23 20:04 | 55.27224 | -2.40732 | 21455 ft | 396 kts | 300° |
| 2026-04-23 20:05 | 55.28583 | -2.44921 | 21077 ft | 393 kts | 300° |
| 2026-04-23 20:05 | 55.29931 | -2.49084 | 20698 ft | 391 kts | 300° |
| 2026-04-23 20:05 | 55.31271 | -2.53228 | 20332 ft | 388 kts | 300° |
| 2026-04-23 20:05 | 55.32604 | -2.57356 | 19963 ft | 386 kts | 300° |
| 2026-04-23 20:06 | 55.33926 | -2.61456 | 19605 ft | 384 kts | 299° |
| 2026-04-23 20:06 | 55.35235 | -2.65527 | 19234 ft | 379 kts | 299° |
| 2026-04-23 20:06 | 55.36516 | -2.69515 | 18894 ft | 371 kts | 299° |
| 2026-04-23 20:06 | 55.37776 | -2.73444 | 18529 ft | 364 kts | 299° |
| 2026-04-23 20:07 | 55.38990 | -2.77237 | 18143 ft | 357 kts | 299° |
| 2026-04-23 20:07 | 55.40200 | -2.81023 | 17755 ft | 351 kts | 298° |
| 2026-04-23 20:07 | 55.41385 | -2.84737 | 17360 ft | 345 kts | 298° |
| 2026-04-23 20:07 | 55.42551 | -2.88397 | 16982 ft | 339 kts | 298° |
| 2026-04-23 20:08 | 55.43696 | -2.91996 | 16614 ft | 334 kts | 298° |
| 2026-04-23 20:08 | 55.44822 | -2.95540 | 16250 ft | 329 kts | 298° |
| 2026-04-23 20:08 | 55.45874 | -2.99097 | 15866 ft | 323 kts | 292° |
| 2026-04-23 20:08 | 55.46486 | -3.02862 | 15564 ft | 316 kts | 281° |
| 2026-04-23 20:09 | 55.46897 | -3.06621 | 15314 ft | 309 kts | 280° |
| 2026-04-23 20:09 | 55.47285 | -3.10327 | 15085 ft | 306 kts | 280° |
| 2026-04-23 20:09 | 55.47671 | -3.14012 | 14841 ft | 305 kts | 280° |
| 2026-04-23 20:09 | 55.48055 | -3.17643 | 14607 ft | 304 kts | 280° |
| 2026-04-23 20:10 | 55.48316 | -3.20119 | 14457 ft | 303 kts | 280° |
| 2026-04-23 20:10 | 55.48827 | -3.24945 | 14129 ft | 302 kts | 280° |
| 2026-04-23 20:10 | 55.49211 | -3.28582 | 13730 ft | 301 kts | 280° |
| 2026-04-23 20:10 | 55.49593 | -3.32196 | 13322 ft | 298 kts | 280° |
| 2026-04-23 20:11 | 55.50151 | -3.35705 | 12848 ft | 298 kts | 293° |
| 2026-04-23 20:11 | 55.51139 | -3.38918 | 12406 ft | 298 kts | 300° |
| 2026-04-23 20:11 | 55.52223 | -3.42020 | 12013 ft | 296 kts | 300° |
| 2026-04-23 20:11 | 55.53307 | -3.45105 | 11756 ft | 295 kts | 300° |
| 2026-04-23 20:12 | 55.54381 | -3.48186 | 11505 ft | 294 kts | 300° |
| 2026-04-23 20:12 | 55.55449 | -3.51263 | 11270 ft | 293 kts | 300° |
| 2026-04-23 20:12 | 55.56499 | -3.54303 | 11021 ft | 292 kts | 300° |
| 2026-04-23 20:12 | 55.57558 | -3.57369 | 10761 ft | 292 kts | 299° |
| 2026-04-23 20:13 | 55.58612 | -3.60426 | 10545 ft | 291 kts | 299° |
| 2026-04-23 20:13 | 55.59661 | -3.63473 | 10443 ft | 290 kts | 299° |
| 2026-04-23 20:13 | 55.60712 | -3.66526 | 10436 ft | 290 kts | 299° |
| 2026-04-23 20:13 | 55.61761 | -3.69578 | 10435 ft | 290 kts | 299° |
| 2026-04-23 20:14 | 55.62758 | -3.72672 | 10415 ft | 287 kts | 293° |
| 2026-04-23 20:14 | 55.63387 | -3.75999 | 10120 ft | 285 kts | 281° |
| 2026-04-23 20:14 | 55.63780 | -3.79423 | 9717 ft | 282 kts | 278° |
| 2026-04-23 20:14 | 55.64117 | -3.82824 | 9335 ft | 279 kts | 278° |
| 2026-04-23 20:15 | 55.64436 | -3.86190 | 8962 ft | 276 kts | 278° |
| 2026-04-23 20:15 | 55.64744 | -3.89516 | 8586 ft | 273 kts | 278° |
| 2026-04-23 20:15 | 55.65047 | -3.92824 | 8207 ft | 270 kts | 278° |
| 2026-04-23 20:15 | 55.65345 | -3.96097 | 7842 ft | 268 kts | 277° |
| 2026-04-23 20:16 | 55.65637 | -3.99338 | 7474 ft | 266 kts | 278° |
| 2026-04-23 20:16 | 55.65926 | -4.02560 | 7140 ft | 263 kts | 278° |
| 2026-04-23 20:16 | 55.66206 | -4.05690 | 7020 ft | 253 kts | 278° |
| 2026-04-23 20:16 | 55.66482 | -4.08772 | 6967 ft | 254 kts | 277° |
| 2026-04-23 20:17 | 55.66753 | -4.11825 | 6664 ft | 253 kts | 277° |
| 2026-04-23 20:17 | 55.67025 | -4.14899 | 6305 ft | 252 kts | 277° |
| 2026-04-23 20:17 | 55.67295 | -4.17960 | 5954 ft | 251 kts | 277° |
| 2026-04-23 20:17 | 55.67563 | -4.21008 | 5603 ft | 250 kts | 277° |
| 2026-04-23 20:18 | 55.67830 | -4.24037 | 5255 ft | 249 kts | 277° |
| 2026-04-23 20:18 | 55.68094 | -4.27052 | 4966 ft | 247 kts | 277° |
| 2026-04-23 20:18 | 55.68355 | -4.30066 | 4703 ft | 247 kts | 277° |
| 2026-04-23 20:18 | 55.68616 | -4.33070 | 4441 ft | 246 kts | 277° |
| 2026-04-23 20:19 | 55.68876 | -4.36069 | 4198 ft | 246 kts | 277° |
| 2026-04-23 20:19 | 55.69134 | -4.39056 | 4033 ft | 245 kts | 277° |
| 2026-04-23 20:19 | 55.69391 | -4.42040 | 4007 ft | 245 kts | 277° |
| 2026-04-23 20:19 | 55.69649 | -4.45028 | 4008 ft | 245 kts | 277° |
| 2026-04-23 20:20 | 55.69818 | -4.47001 | 3970 ft | 245 kts | 277° |
| 2026-04-23 20:20 | 55.70074 | -4.49986 | 3739 ft | 242 kts | 277° |
| 2026-04-23 20:20 | 55.70324 | -4.52902 | 3494 ft | 237 kts | 276° |
| 2026-04-23 20:20 | 55.70607 | -4.55755 | 3255 ft | 232 kts | 283° |
| 2026-04-23 20:21 | 55.71227 | -4.58313 | 3175 ft | 221 kts | 300° |
| 2026-04-23 20:21 | 55.72055 | -4.60560 | 3120 ft | 215 kts | 303° |
| 2026-04-23 20:21 | 55.72907 | -4.62740 | 3067 ft | 215 kts | 304° |
| 2026-04-23 20:21 | 55.74003 | -4.64387 | 2978 ft | 201 kts | 342° |
| 2026-04-23 20:22 | 55.75325 | -4.64312 | 2935 ft | 189 kts | 22° |
| 2026-04-23 20:22 | 55.76490 | -4.63270 | 2854 ft | 187 kts | 36° |
| 2026-04-23 20:22 | 55.77401 | -4.61683 | 2682 ft | 185 kts | 53° |
| 2026-04-23 20:22 | 55.78234 | -4.59975 | 2415 ft | 181 kts | 50° |
| 2026-04-23 20:23 | 55.79106 | -4.58410 | 2155 ft | 173 kts | 48° |
| 2026-04-23 20:23 | 55.79908 | -4.56923 | 1913 ft | 161 kts | 49° |
| 2026-04-23 20:23 | 55.80665 | -4.55498 | 1718 ft | 157 kts | 48° |
| 2026-04-23 20:23 | 55.81418 | -4.54098 | 1483 ft | 157 kts | 48° |
| 2026-04-23 20:24 | 55.82159 | -4.52720 | 1281 ft | 149 kts | 48° |
| 2026-04-23 20:24 | 55.82846 | -4.51437 | 1064 ft | 138 kts | 47° |
| 2026-04-23 20:24 | 55.83485 | -4.50245 | 886 ft | 129 kts | 47° |
| 2026-04-23 20:24 | 55.84099 | -4.49101 | 698 ft | 127 kts | 47° |
| 2026-04-23 20:25 | 55.84708 | -4.47964 | 553 ft | 127 kts | 47° |
| 2026-04-23 20:25 | 55.85325 | -4.46836 | 379 ft | 127 kts | 46° |
| 2026-04-23 20:25 | 55.85932 | -4.45690 | 210 ft | 126 kts | 49° |
| 2026-04-23 20:25 | 55.86540 | -4.44557 | 44 ft | 125 kts | 47° |
| 2026-04-23 20:26 | 55.87061 | -4.43575 | 45 ft | 92 kts | 46° |
| 2026-04-23 20:26 | 55.87428 | -4.42885 | 42 ft | 61 kts | 47° |
| 2026-04-23 20:26 | 55.87640 | -4.42487 | 43 ft | 28 kts | 47° |
| 2026-04-23 20:26 | 55.87729 | -4.42321 | 41 ft | 17 kts | 46° |
| 2026-04-23 20:27 | 55.87746 | -4.42215 | 38 ft | 10 kts | 119° |
| 2026-04-23 20:27 | 55.87672 | -4.42142 | 36 ft | 14 kts | 180° |
| 2026-04-23 20:27 | 55.87588 | -4.42215 | 39 ft | 15 kts | 222° |
| 2026-04-23 20:27 | 55.87507 | -4.42356 | 40 ft | 17 kts | 225° |
| 2026-04-23 20:28 | 55.87418 | -4.42522 | 40 ft | 19 kts | 226° |
| 2026-04-23 20:28 | 55.87350 | -4.42604 | 40 ft | 12 kts | 201° |
| 2026-04-23 20:28 | 55.87263 | -4.42664 | 40 ft | 15 kts | 200° |
| 2026-04-23 20:28 | 55.87157 | -4.42734 | 39 ft | 17 kts | 200° |
| 2026-04-23 20:29 | 55.87045 | -4.42809 | 39 ft | 14 kts | 201° |
| 2026-04-23 20:29 | 55.86944 | -4.42887 | 39 ft | 18 kts | 205° |
| 2026-04-23 20:29 | 55.86858 | -4.42962 | 39 ft | 5 kts | 207° |
| 2026-04-23 20:29 | 55.86811 | -4.43003 | 39 ft | 10 kts | 203° |
| 2026-04-23 20:30 | 55.86757 | -4.43055 | 39 ft | 0 kts | 212° |